<?xml version="1.0" encoding="UTF-8" standalone="no" ?><gpx xmlns="http://www.topografix.com/GPX/1/1" xmlns:gpxx="http://www.garmin.com/xmlschemas/GpxExtensions/v3" xmlns:wptx1="http://www.garmin.com/xmlschemas/WaypointExtension/v1" xmlns:gpxtpx="http://www.garmin.com/xmlschemas/TrackPointExtension/v1" creator="GuideVTT.com" version="1.1" xmlns:xsi="http://www.w3.org/2001/XMLSchema-instance" xsi:schemaLocation="http://www.topografix.com/GPX/1/1 http://www.topografix.com/GPX/1/1/gpx.xsd http://www.garmin.com/xmlschemas/GpxExtensions/v3 http://www8.garmin.com/xmlschemas/GpxExtensionsv3.xsd http://www.garmin.com/xmlschemas/WaypointExtension/v1 http://www8.garmin.com/xmlschemas/WaypointExtensionv1.xsd http://www.garmin.com/xmlschemas/TrackPointExtension/v1 http://www.garmin.com/xmlschemas/TrackPointExtensionv1.xsd">
<metadata><link href="http://www.garmin.com"><text>Garmin International</text></link><time>2013-06-22T15:13:50Z</time></metadata>
<trk><name>2021-01-17_0923__20210117_0923.gpx</name><extensions><gpxx:TrackExtension><gpxx:DisplayColor>Cyan</gpxx:DisplayColor></gpxx:TrackExtension></extensions><trkseg>
<trkpt lat="49.1251293" lon="2.6930635"><ele>59.60</ele><time>2026-4-30T5:45:34Z</time></trkpt>
<trkpt lat="49.1252910" lon="2.6931951"><ele>73.31</ele><time>2026-4-30T5:45:37Z</time></trkpt>
<trkpt lat="49.1254859" lon="2.6932225"><ele>72.70</ele><time>2026-4-30T5:45:40Z</time></trkpt>
<trkpt lat="49.1256111" lon="2.6930056"><ele>73.40</ele><time>2026-4-30T5:45:43Z</time></trkpt>
<trkpt lat="49.1256007" lon="2.6927039"><ele>73.14</ele><time>2026-4-30T5:45:46Z</time></trkpt>
<trkpt lat="49.1256427" lon="2.6923893"><ele>71.49</ele><time>2026-4-30T5:45:49Z</time></trkpt>
<trkpt lat="49.1257746" lon="2.6921505"><ele>71.07</ele><time>2026-4-30T5:45:52Z</time></trkpt>
<trkpt lat="49.1259285" lon="2.6919290"><ele>71.52</ele><time>2026-4-30T5:45:55Z</time></trkpt>
<trkpt lat="49.1260642" lon="2.6917341"><ele>73.94</ele><time>2026-4-30T5:45:58Z</time></trkpt>
<trkpt lat="49.1262202" lon="2.6915162"><ele>75.67</ele><time>2026-4-30T5:46:1Z</time></trkpt>
<trkpt lat="49.1263699" lon="2.6913514"><ele>74.98</ele><time>2026-4-30T5:46:4Z</time></trkpt>
<trkpt lat="49.1265012" lon="2.6911448"><ele>74.17</ele><time>2026-4-30T5:46:7Z</time></trkpt>
<trkpt lat="49.1265935" lon="2.6908721"><ele>74.05</ele><time>2026-4-30T5:46:10Z</time></trkpt>
<trkpt lat="49.1267408" lon="2.6906725"><ele>74.87</ele><time>2026-4-30T5:46:13Z</time></trkpt>
<trkpt lat="49.1269227" lon="2.6905240"><ele>73.88</ele><time>2026-4-30T5:46:16Z</time></trkpt>
<trkpt lat="49.1271024" lon="2.6904222"><ele>75.12</ele><time>2026-4-30T5:46:19Z</time></trkpt>
<trkpt lat="49.1273010" lon="2.6902981"><ele>75.99</ele><time>2026-4-30T5:46:22Z</time></trkpt>
<trkpt lat="49.1274650" lon="2.6901412"><ele>74.98</ele><time>2026-4-30T5:46:25Z</time></trkpt>
<trkpt lat="49.1273519" lon="2.6899181"><ele>80.97</ele><time>2026-4-30T5:46:28Z</time></trkpt>
<trkpt lat="49.1273763" lon="2.6896419"><ele>82.02</ele><time>2026-4-30T5:46:31Z</time></trkpt>
<trkpt lat="49.1274410" lon="2.6893663"><ele>80.30</ele><time>2026-4-30T5:46:34Z</time></trkpt>
<trkpt lat="49.1275301" lon="2.6891066"><ele>81.01</ele><time>2026-4-30T5:46:37Z</time></trkpt>
<trkpt lat="49.1275820" lon="2.6888279"><ele>81.13</ele><time>2026-4-30T5:46:40Z</time></trkpt>
<trkpt lat="49.1276714" lon="2.6885837"><ele>82.68</ele><time>2026-4-30T5:46:43Z</time></trkpt>
<trkpt lat="49.1277627" lon="2.6883425"><ele>85.70</ele><time>2026-4-30T5:46:46Z</time></trkpt>
<trkpt lat="49.1278330" lon="2.6880746"><ele>85.54</ele><time>2026-4-30T5:46:49Z</time></trkpt>
<trkpt lat="49.1279056" lon="2.6878103"><ele>85.38</ele><time>2026-4-30T5:46:52Z</time></trkpt>
<trkpt lat="49.1279909" lon="2.6875183"><ele>84.81</ele><time>2026-4-30T5:46:55Z</time></trkpt>
<trkpt lat="49.1280449" lon="2.6872445"><ele>86.04</ele><time>2026-4-30T5:46:58Z</time></trkpt>
<trkpt lat="49.1280895" lon="2.6869339"><ele>84.10</ele><time>2026-4-30T5:47:1Z</time></trkpt>
<trkpt lat="49.1281440" lon="2.6866601"><ele>86.04</ele><time>2026-4-30T5:47:4Z</time></trkpt>
<trkpt lat="49.1281948" lon="2.6863782"><ele>84.85</ele><time>2026-4-30T5:47:7Z</time></trkpt>
<trkpt lat="49.1282237" lon="2.6861034"><ele>87.11</ele><time>2026-4-30T5:47:10Z</time></trkpt>
<trkpt lat="49.1282224" lon="2.6858019"><ele>87.47</ele><time>2026-4-30T5:47:13Z</time></trkpt>
<trkpt lat="49.1281646" lon="2.6855274"><ele>93.28</ele><time>2026-4-30T5:47:16Z</time></trkpt>
<trkpt lat="49.1281320" lon="2.6852283"><ele>91.12</ele><time>2026-4-30T5:47:19Z</time></trkpt>
<trkpt lat="49.1281019" lon="2.6849221"><ele>90.03</ele><time>2026-4-30T5:47:22Z</time></trkpt>
<trkpt lat="49.1280752" lon="2.6846281"><ele>90.85</ele><time>2026-4-30T5:47:25Z</time></trkpt>
<trkpt lat="49.1280630" lon="2.6843176"><ele>90.33</ele><time>2026-4-30T5:47:28Z</time></trkpt>
<trkpt lat="49.1280616" lon="2.6840397"><ele>86.64</ele><time>2026-4-30T5:47:31Z</time></trkpt>
<trkpt lat="49.1280760" lon="2.6837374"><ele>88.56</ele><time>2026-4-30T5:47:34Z</time></trkpt>
<trkpt lat="49.1280777" lon="2.6834127"><ele>91.41</ele><time>2026-4-30T5:47:37Z</time></trkpt>
<trkpt lat="49.1280936" lon="2.6830901"><ele>92.53</ele><time>2026-4-30T5:47:40Z</time></trkpt>
<trkpt lat="49.1280972" lon="2.6827861"><ele>91.02</ele><time>2026-4-30T5:47:43Z</time></trkpt>
<trkpt lat="49.1280978" lon="2.6824847"><ele>88.75</ele><time>2026-4-30T5:47:46Z</time></trkpt>
<trkpt lat="49.1281365" lon="2.6821661"><ele>89.26</ele><time>2026-4-30T5:47:49Z</time></trkpt>
<trkpt lat="49.1282046" lon="2.6819094"><ele>86.90</ele><time>2026-4-30T5:47:52Z</time></trkpt>
<trkpt lat="49.1282418" lon="2.6816400"><ele>86.78</ele><time>2026-4-30T5:47:55Z</time></trkpt>
<trkpt lat="49.1282995" lon="2.6813449"><ele>86.08</ele><time>2026-4-30T5:47:58Z</time></trkpt>
<trkpt lat="49.1283453" lon="2.6810296"><ele>86.22</ele><time>2026-4-30T5:48:1Z</time></trkpt>
<trkpt lat="49.1283356" lon="2.6807220"><ele>86.20</ele><time>2026-4-30T5:48:4Z</time></trkpt>
<trkpt lat="49.1282331" lon="2.6804758"><ele>86.08</ele><time>2026-4-30T5:48:7Z</time></trkpt>
<trkpt lat="49.1281506" lon="2.6802238"><ele>87.74</ele><time>2026-4-30T5:48:10Z</time></trkpt>
<trkpt lat="49.1280081" lon="2.6800007"><ele>90.35</ele><time>2026-4-30T5:48:13Z</time></trkpt>
<trkpt lat="49.1278181" lon="2.6799248"><ele>86.45</ele><time>2026-4-30T5:48:16Z</time></trkpt>
<trkpt lat="49.1276283" lon="2.6799105"><ele>88.18</ele><time>2026-4-30T5:48:19Z</time></trkpt>
<trkpt lat="49.1274233" lon="2.6799278"><ele>85.59</ele><time>2026-4-30T5:48:22Z</time></trkpt>
<trkpt lat="49.1272419" lon="2.6799576"><ele>85.78</ele><time>2026-4-30T5:48:25Z</time></trkpt>
<trkpt lat="49.1270548" lon="2.6799609"><ele>88.65</ele><time>2026-4-30T5:48:28Z</time></trkpt>
<trkpt lat="49.1268642" lon="2.6799900"><ele>92.13</ele><time>2026-4-30T5:48:31Z</time></trkpt>
<trkpt lat="49.1266715" lon="2.6800090"><ele>95.47</ele><time>2026-4-30T5:48:34Z</time></trkpt>
<trkpt lat="49.1264832" lon="2.6800608"><ele>99.73</ele><time>2026-4-30T5:48:37Z</time></trkpt>
<trkpt lat="49.1262822" lon="2.6800611"><ele>101.59</ele><time>2026-4-30T5:48:40Z</time></trkpt>
<trkpt lat="49.1260783" lon="2.6800765"><ele>98.01</ele><time>2026-4-30T5:48:43Z</time></trkpt>
<trkpt lat="49.1258853" lon="2.6801359"><ele>96.98</ele><time>2026-4-30T5:48:46Z</time></trkpt>
<trkpt lat="49.1257048" lon="2.6801544"><ele>96.45</ele><time>2026-4-30T5:48:49Z</time></trkpt>
<trkpt lat="49.1255085" lon="2.6801356"><ele>99.62</ele><time>2026-4-30T5:48:52Z</time></trkpt>
<trkpt lat="49.1253255" lon="2.6800808"><ele>95.96</ele><time>2026-4-30T5:48:55Z</time></trkpt>
<trkpt lat="49.1251358" lon="2.6801539"><ele>99.95</ele><time>2026-4-30T5:48:58Z</time></trkpt>
<trkpt lat="49.1249617" lon="2.6800826"><ele>100.14</ele><time>2026-4-30T5:49:1Z</time></trkpt>
<trkpt lat="49.1249286" lon="2.6798045"><ele>98.36</ele><time>2026-4-30T5:49:4Z</time></trkpt>
<trkpt lat="49.1249353" lon="2.6795215"><ele>94.93</ele><time>2026-4-30T5:49:7Z</time></trkpt>
<trkpt lat="49.1249221" lon="2.6792339"><ele>93.00</ele><time>2026-4-30T5:49:10Z</time></trkpt>
<trkpt lat="49.1248935" lon="2.6789193"><ele>94.36</ele><time>2026-4-30T5:49:13Z</time></trkpt>
<trkpt lat="49.1248801" lon="2.6786203"><ele>93.09</ele><time>2026-4-30T5:49:16Z</time></trkpt>
<trkpt lat="49.1248706" lon="2.6782907"><ele>92.11</ele><time>2026-4-30T5:49:19Z</time></trkpt>
<trkpt lat="49.1248525" lon="2.6779782"><ele>91.09</ele><time>2026-4-30T5:49:22Z</time></trkpt>
<trkpt lat="49.1248085" lon="2.6776456"><ele>90.88</ele><time>2026-4-30T5:49:25Z</time></trkpt>
<trkpt lat="49.1247914" lon="2.6773599"><ele>89.04</ele><time>2026-4-30T5:49:28Z</time></trkpt>
<trkpt lat="49.1247659" lon="2.6770704"><ele>88.96</ele><time>2026-4-30T5:49:31Z</time></trkpt>
<trkpt lat="49.1247339" lon="2.6767953"><ele>90.21</ele><time>2026-4-30T5:49:34Z</time></trkpt>
<trkpt lat="49.1246844" lon="2.6764912"><ele>90.15</ele><time>2026-4-30T5:49:37Z</time></trkpt>
<trkpt lat="49.1246198" lon="2.6762069"><ele>93.13</ele><time>2026-4-30T5:49:40Z</time></trkpt>
<trkpt lat="49.1245779" lon="2.6759259"><ele>94.05</ele><time>2026-4-30T5:49:43Z</time></trkpt>
<trkpt lat="49.1245218" lon="2.6756424"><ele>94.73</ele><time>2026-4-30T5:49:46Z</time></trkpt>
<trkpt lat="49.1244563" lon="2.6753665"><ele>93.68</ele><time>2026-4-30T5:49:49Z</time></trkpt>
<trkpt lat="49.1245786" lon="2.6755840"><ele>93.92</ele><time>2026-4-30T5:49:52Z</time></trkpt>
<trkpt lat="49.1247591" lon="2.6755735"><ele>96.67</ele><time>2026-4-30T5:49:55Z</time></trkpt>
<trkpt lat="49.1249452" lon="2.6755977"><ele>97.62</ele><time>2026-4-30T5:49:58Z</time></trkpt>
<trkpt lat="49.1251475" lon="2.6756012"><ele>98.73</ele><time>2026-4-30T5:50:1Z</time></trkpt>
<trkpt lat="49.1253309" lon="2.6755971"><ele>100.23</ele><time>2026-4-30T5:50:4Z</time></trkpt>
<trkpt lat="49.1255376" lon="2.6755504"><ele>103.77</ele><time>2026-4-30T5:50:7Z</time></trkpt>
<trkpt lat="49.1257247" lon="2.6755590"><ele>110.44</ele><time>2026-4-30T5:50:10Z</time></trkpt>
<trkpt lat="49.1259158" lon="2.6755917"><ele>110.77</ele><time>2026-4-30T5:50:13Z</time></trkpt>
<trkpt lat="49.1261093" lon="2.6755209"><ele>111.37</ele><time>2026-4-30T5:50:16Z</time></trkpt>
<trkpt lat="49.1263109" lon="2.6755941"><ele>112.59</ele><time>2026-4-30T5:50:19Z</time></trkpt>
<trkpt lat="49.1264998" lon="2.6755905"><ele>111.07</ele><time>2026-4-30T5:50:22Z</time></trkpt>
<trkpt lat="49.1266821" lon="2.6755481"><ele>108.89</ele><time>2026-4-30T5:50:25Z</time></trkpt>
<trkpt lat="49.1268650" lon="2.6755462"><ele>113.92</ele><time>2026-4-30T5:50:28Z</time></trkpt>
<trkpt lat="49.1270480" lon="2.6755413"><ele>118.40</ele><time>2026-4-30T5:50:31Z</time></trkpt>
<trkpt lat="49.1272360" lon="2.6755319"><ele>119.74</ele><time>2026-4-30T5:50:34Z</time></trkpt>
<trkpt lat="49.1274176" lon="2.6755334"><ele>117.15</ele><time>2026-4-30T5:50:37Z</time></trkpt>
<trkpt lat="49.1276102" lon="2.6755410"><ele>115.10</ele><time>2026-4-30T5:50:40Z</time></trkpt>
<trkpt lat="49.1278131" lon="2.6754915"><ele>103.62</ele><time>2026-4-30T5:50:43Z</time></trkpt>
<trkpt lat="49.1277980" lon="2.6751276"><ele>102.26</ele><time>2026-4-30T5:50:46Z</time></trkpt>
<trkpt lat="49.1278189" lon="2.6748523"><ele>98.68</ele><time>2026-4-30T5:50:49Z</time></trkpt>
<trkpt lat="49.1277626" lon="2.6745673"><ele>98.47</ele><time>2026-4-30T5:50:52Z</time></trkpt>
<trkpt lat="49.1277331" lon="2.6742515"><ele>99.36</ele><time>2026-4-30T5:50:55Z</time></trkpt>
<trkpt lat="49.1277515" lon="2.6739516"><ele>99.69</ele><time>2026-4-30T5:50:58Z</time></trkpt>
<trkpt lat="49.1278062" lon="2.6735970"><ele>98.49</ele><time>2026-4-30T5:51:1Z</time></trkpt>
<trkpt lat="49.1278552" lon="2.6733243"><ele>95.76</ele><time>2026-4-30T5:51:4Z</time></trkpt>
<trkpt lat="49.1279172" lon="2.6730658"><ele>96.62</ele><time>2026-4-30T5:51:7Z</time></trkpt>
<trkpt lat="49.1279673" lon="2.6727902"><ele>96.91</ele><time>2026-4-30T5:51:10Z</time></trkpt>
<trkpt lat="49.1280116" lon="2.6724744"><ele>98.13</ele><time>2026-4-30T5:51:13Z</time></trkpt>
<trkpt lat="49.1280642" lon="2.6721960"><ele>98.74</ele><time>2026-4-30T5:51:16Z</time></trkpt>
<trkpt lat="49.1279741" lon="2.6719277"><ele>97.68</ele><time>2026-4-30T5:51:19Z</time></trkpt>
<trkpt lat="49.1278325" lon="2.6717487"><ele>98.76</ele><time>2026-4-30T5:51:22Z</time></trkpt>
<trkpt lat="49.1276602" lon="2.6715514"><ele>98.00</ele><time>2026-4-30T5:51:25Z</time></trkpt>
<trkpt lat="49.1274970" lon="2.6713717"><ele>98.96</ele><time>2026-4-30T5:51:28Z</time></trkpt>
<trkpt lat="49.1273282" lon="2.6712327"><ele>100.52</ele><time>2026-4-30T5:51:31Z</time></trkpt>
<trkpt lat="49.1271743" lon="2.6710864"><ele>98.27</ele><time>2026-4-30T5:51:34Z</time></trkpt>
<trkpt lat="49.1270201" lon="2.6709031"><ele>95.11</ele><time>2026-4-30T5:51:37Z</time></trkpt>
<trkpt lat="49.1268363" lon="2.6707860"><ele>92.60</ele><time>2026-4-30T5:51:40Z</time></trkpt>
<trkpt lat="49.1266611" lon="2.6706178"><ele>96.04</ele><time>2026-4-30T5:51:43Z</time></trkpt>
<trkpt lat="49.1264723" lon="2.6704578"><ele>101.16</ele><time>2026-4-30T5:51:46Z</time></trkpt>
<trkpt lat="49.1262878" lon="2.6702863"><ele>104.87</ele><time>2026-4-30T5:51:49Z</time></trkpt>
<trkpt lat="49.1261151" lon="2.6701267"><ele>103.93</ele><time>2026-4-30T5:51:52Z</time></trkpt>
<trkpt lat="49.1259612" lon="2.6699679"><ele>101.74</ele><time>2026-4-30T5:51:55Z</time></trkpt>
<trkpt lat="49.1257863" lon="2.6698463"><ele>98.52</ele><time>2026-4-30T5:51:58Z</time></trkpt>
<trkpt lat="49.1256490" lon="2.6696681"><ele>97.66</ele><time>2026-4-30T5:52:1Z</time></trkpt>
<trkpt lat="49.1256264" lon="2.6693803"><ele>97.44</ele><time>2026-4-30T5:52:4Z</time></trkpt>
<trkpt lat="49.1255554" lon="2.6691025"><ele>95.92</ele><time>2026-4-30T5:52:7Z</time></trkpt>
<trkpt lat="49.1255255" lon="2.6687734"><ele>93.64</ele><time>2026-4-30T5:52:10Z</time></trkpt>
<trkpt lat="49.1254958" lon="2.6684916"><ele>93.04</ele><time>2026-4-30T5:52:13Z</time></trkpt>
<trkpt lat="49.1254373" lon="2.6682150"><ele>93.45</ele><time>2026-4-30T5:52:16Z</time></trkpt>
<trkpt lat="49.1253880" lon="2.6679465"><ele>97.60</ele><time>2026-4-30T5:52:19Z</time></trkpt>
<trkpt lat="49.1253488" lon="2.6676484"><ele>101.90</ele><time>2026-4-30T5:52:22Z</time></trkpt>
<trkpt lat="49.1253198" lon="2.6673350"><ele>96.91</ele><time>2026-4-30T5:52:25Z</time></trkpt>
<trkpt lat="49.1252867" lon="2.6670109"><ele>97.61</ele><time>2026-4-30T5:52:28Z</time></trkpt>
<trkpt lat="49.1252558" lon="2.6667366"><ele>98.61</ele><time>2026-4-30T5:52:31Z</time></trkpt>
<trkpt lat="49.1251931" lon="2.6664764"><ele>99.07</ele><time>2026-4-30T5:52:34Z</time></trkpt>
<trkpt lat="49.1251941" lon="2.6661752"><ele>97.44</ele><time>2026-4-30T5:52:37Z</time></trkpt>
<trkpt lat="49.1251549" lon="2.6658575"><ele>100.77</ele><time>2026-4-30T5:52:40Z</time></trkpt>
<trkpt lat="49.1250957" lon="2.6655668"><ele>100.76</ele><time>2026-4-30T5:52:43Z</time></trkpt>
<trkpt lat="49.1250226" lon="2.6653084"><ele>97.89</ele><time>2026-4-30T5:52:46Z</time></trkpt>
<trkpt lat="49.1249861" lon="2.6650214"><ele>104.59</ele><time>2026-4-30T5:52:49Z</time></trkpt>
<trkpt lat="49.1249524" lon="2.6647405"><ele>103.18</ele><time>2026-4-30T5:52:52Z</time></trkpt>
<trkpt lat="49.1249098" lon="2.6644524"><ele>98.03</ele><time>2026-4-30T5:52:55Z</time></trkpt>
<trkpt lat="49.1248819" lon="2.6641393"><ele>97.52</ele><time>2026-4-30T5:52:58Z</time></trkpt>
<trkpt lat="49.1248463" lon="2.6638655"><ele>98.15</ele><time>2026-4-30T5:53:1Z</time></trkpt>
<trkpt lat="49.1248178" lon="2.6635349"><ele>94.22</ele><time>2026-4-30T5:53:4Z</time></trkpt>
<trkpt lat="49.1248077" lon="2.6632464"><ele>93.48</ele><time>2026-4-30T5:53:7Z</time></trkpt>
<trkpt lat="49.1247734" lon="2.6629604"><ele>98.55</ele><time>2026-4-30T5:53:10Z</time></trkpt>
<trkpt lat="49.1247220" lon="2.6626629"><ele>99.41</ele><time>2026-4-30T5:53:13Z</time></trkpt>
<trkpt lat="49.1246896" lon="2.6623746"><ele>94.37</ele><time>2026-4-30T5:53:16Z</time></trkpt>
<trkpt lat="49.1246564" lon="2.6620777"><ele>95.70</ele><time>2026-4-30T5:53:19Z</time></trkpt>
<trkpt lat="49.1246242" lon="2.6617920"><ele>97.11</ele><time>2026-4-30T5:53:22Z</time></trkpt>
<trkpt lat="49.1245646" lon="2.6614926"><ele>99.43</ele><time>2026-4-30T5:53:25Z</time></trkpt>
<trkpt lat="49.1245115" lon="2.6611904"><ele>100.64</ele><time>2026-4-30T5:53:28Z</time></trkpt>
<trkpt lat="49.1244453" lon="2.6608791"><ele>101.69</ele><time>2026-4-30T5:53:31Z</time></trkpt>
<trkpt lat="49.1244130" lon="2.6606065"><ele>101.43</ele><time>2026-4-30T5:53:34Z</time></trkpt>
<trkpt lat="49.1243831" lon="2.6603032"><ele>102.15</ele><time>2026-4-30T5:53:37Z</time></trkpt>
<trkpt lat="49.1243427" lon="2.6600087"><ele>102.96</ele><time>2026-4-30T5:53:40Z</time></trkpt>
<trkpt lat="49.1242965" lon="2.6597023"><ele>102.03</ele><time>2026-4-30T5:53:43Z</time></trkpt>
<trkpt lat="49.1242735" lon="2.6594219"><ele>101.00</ele><time>2026-4-30T5:53:46Z</time></trkpt>
<trkpt lat="49.1242384" lon="2.6591140"><ele>100.52</ele><time>2026-4-30T5:53:49Z</time></trkpt>
<trkpt lat="49.1241928" lon="2.6588195"><ele>96.89</ele><time>2026-4-30T5:53:52Z</time></trkpt>
<trkpt lat="49.1241277" lon="2.6585549"><ele>97.28</ele><time>2026-4-30T5:53:55Z</time></trkpt>
<trkpt lat="49.1241065" lon="2.6582682"><ele>99.66</ele><time>2026-4-30T5:53:58Z</time></trkpt>
<trkpt lat="49.1240609" lon="2.6579856"><ele>101.85</ele><time>2026-4-30T5:54:1Z</time></trkpt>
<trkpt lat="49.1239949" lon="2.6576857"><ele>95.69</ele><time>2026-4-30T5:54:4Z</time></trkpt>
<trkpt lat="49.1239739" lon="2.6573770"><ele>96.08</ele><time>2026-4-30T5:54:7Z</time></trkpt>
<trkpt lat="49.1239383" lon="2.6570903"><ele>99.30</ele><time>2026-4-30T5:54:10Z</time></trkpt>
<trkpt lat="49.1239315" lon="2.6567688"><ele>94.92</ele><time>2026-4-30T5:54:13Z</time></trkpt>
<trkpt lat="49.1238860" lon="2.6564743"><ele>96.10</ele><time>2026-4-30T5:54:16Z</time></trkpt>
<trkpt lat="49.1238256" lon="2.6561938"><ele>94.30</ele><time>2026-4-30T5:54:19Z</time></trkpt>
<trkpt lat="49.1237252" lon="2.6559638"><ele>93.67</ele><time>2026-4-30T5:54:22Z</time></trkpt>
<trkpt lat="49.1235421" lon="2.6559729"><ele>92.36</ele><time>2026-4-30T5:54:25Z</time></trkpt>
<trkpt lat="49.1233459" lon="2.6559659"><ele>92.30</ele><time>2026-4-30T5:54:28Z</time></trkpt>
<trkpt lat="49.1231296" lon="2.6559846"><ele>91.63</ele><time>2026-4-30T5:54:31Z</time></trkpt>
<trkpt lat="49.1229098" lon="2.6559694"><ele>91.87</ele><time>2026-4-30T5:54:34Z</time></trkpt>
<trkpt lat="49.1226905" lon="2.6559552"><ele>92.47</ele><time>2026-4-30T5:54:37Z</time></trkpt>
<trkpt lat="49.1224988" lon="2.6559398"><ele>91.31</ele><time>2026-4-30T5:54:40Z</time></trkpt>
<trkpt lat="49.1222984" lon="2.6559367"><ele>91.78</ele><time>2026-4-30T5:54:43Z</time></trkpt>
<trkpt lat="49.1220925" lon="2.6559273"><ele>93.59</ele><time>2026-4-30T5:54:46Z</time></trkpt>
<trkpt lat="49.1218978" lon="2.6559211"><ele>94.91</ele><time>2026-4-30T5:54:49Z</time></trkpt>
<trkpt lat="49.1216894" lon="2.6559347"><ele>94.62</ele><time>2026-4-30T5:54:52Z</time></trkpt>
<trkpt lat="49.1214600" lon="2.6559381"><ele>91.31</ele><time>2026-4-30T5:54:55Z</time></trkpt>
<trkpt lat="49.1212618" lon="2.6559295"><ele>91.81</ele><time>2026-4-30T5:54:58Z</time></trkpt>
<trkpt lat="49.1210341" lon="2.6559150"><ele>89.25</ele><time>2026-4-30T5:55:1Z</time></trkpt>
<trkpt lat="49.1208532" lon="2.6559074"><ele>87.76</ele><time>2026-4-30T5:55:4Z</time></trkpt>
<trkpt lat="49.1206692" lon="2.6559121"><ele>86.22</ele><time>2026-4-30T5:55:7Z</time></trkpt>
<trkpt lat="49.1204846" lon="2.6559210"><ele>85.12</ele><time>2026-4-30T5:55:10Z</time></trkpt>
<trkpt lat="49.1202955" lon="2.6559072"><ele>85.72</ele><time>2026-4-30T5:55:13Z</time></trkpt>
<trkpt lat="49.1201078" lon="2.6557974"><ele>84.67</ele><time>2026-4-30T5:55:16Z</time></trkpt>
<trkpt lat="49.1201344" lon="2.6555147"><ele>87.15</ele><time>2026-4-30T5:55:19Z</time></trkpt>
<trkpt lat="49.1201295" lon="2.6552368"><ele>89.00</ele><time>2026-4-30T5:55:22Z</time></trkpt>
<trkpt lat="49.1201489" lon="2.6549626"><ele>89.76</ele><time>2026-4-30T5:55:25Z</time></trkpt>
<trkpt lat="49.1201472" lon="2.6546353"><ele>88.90</ele><time>2026-4-30T5:55:28Z</time></trkpt>
<trkpt lat="49.1201464" lon="2.6543410"><ele>87.11</ele><time>2026-4-30T5:55:31Z</time></trkpt>
<trkpt lat="49.1201555" lon="2.6540606"><ele>86.84</ele><time>2026-4-30T5:55:34Z</time></trkpt>
<trkpt lat="49.1201394" lon="2.6537474"><ele>90.27</ele><time>2026-4-30T5:55:37Z</time></trkpt>
<trkpt lat="49.1201121" lon="2.6534342"><ele>89.66</ele><time>2026-4-30T5:55:40Z</time></trkpt>
<trkpt lat="49.1201307" lon="2.6531360"><ele>90.87</ele><time>2026-4-30T5:55:43Z</time></trkpt>
<trkpt lat="49.1201555" lon="2.6528260"><ele>91.52</ele><time>2026-4-30T5:55:46Z</time></trkpt>
<trkpt lat="49.1201529" lon="2.6525321"><ele>91.69</ele><time>2026-4-30T5:55:49Z</time></trkpt>
<trkpt lat="49.1201737" lon="2.6522486"><ele>92.12</ele><time>2026-4-30T5:55:52Z</time></trkpt>
<trkpt lat="49.1201669" lon="2.6519713"><ele>94.68</ele><time>2026-4-30T5:55:55Z</time></trkpt>
<trkpt lat="49.1201691" lon="2.6516420"><ele>92.57</ele><time>2026-4-30T5:55:58Z</time></trkpt>
<trkpt lat="49.1201540" lon="2.6513340"><ele>92.21</ele><time>2026-4-30T5:56:1Z</time></trkpt>
<trkpt lat="49.1201599" lon="2.6510274"><ele>89.78</ele><time>2026-4-30T5:56:4Z</time></trkpt>
<trkpt lat="49.1201341" lon="2.6507372"><ele>88.65</ele><time>2026-4-30T5:56:7Z</time></trkpt>
<trkpt lat="49.1201323" lon="2.6504570"><ele>91.10</ele><time>2026-4-30T5:56:10Z</time></trkpt>
<trkpt lat="49.1201478" lon="2.6501809"><ele>91.99</ele><time>2026-4-30T5:56:13Z</time></trkpt>
<trkpt lat="49.1201383" lon="2.6498560"><ele>91.45</ele><time>2026-4-30T5:56:16Z</time></trkpt>
<trkpt lat="49.1201519" lon="2.6495777"><ele>89.93</ele><time>2026-4-30T5:56:19Z</time></trkpt>
<trkpt lat="49.1201510" lon="2.6492842"><ele>91.36</ele><time>2026-4-30T5:56:22Z</time></trkpt>
<trkpt lat="49.1201611" lon="2.6489701"><ele>92.56</ele><time>2026-4-30T5:56:25Z</time></trkpt>
<trkpt lat="49.1201663" lon="2.6486848"><ele>89.58</ele><time>2026-4-30T5:56:28Z</time></trkpt>
<trkpt lat="49.1201694" lon="2.6484090"><ele>84.21</ele><time>2026-4-30T5:56:31Z</time></trkpt>
<trkpt lat="49.1203563" lon="2.6484754"><ele>90.39</ele><time>2026-4-30T5:56:34Z</time></trkpt>
<trkpt lat="49.1205455" lon="2.6485504"><ele>90.03</ele><time>2026-4-30T5:56:37Z</time></trkpt>
<trkpt lat="49.1207248" lon="2.6486071"><ele>88.90</ele><time>2026-4-30T5:56:40Z</time></trkpt>
<trkpt lat="49.1208951" lon="2.6487184"><ele>88.64</ele><time>2026-4-30T5:56:43Z</time></trkpt>
<trkpt lat="49.1210391" lon="2.6489131"><ele>89.78</ele><time>2026-4-30T5:56:46Z</time></trkpt>
<trkpt lat="49.1211715" lon="2.6491525"><ele>92.38</ele><time>2026-4-30T5:56:49Z</time></trkpt>
<trkpt lat="49.1213230" lon="2.6493650"><ele>94.52</ele><time>2026-4-30T5:56:52Z</time></trkpt>
<trkpt lat="49.1214429" lon="2.6495715"><ele>93.97</ele><time>2026-4-30T5:56:55Z</time></trkpt>
<trkpt lat="49.1216196" lon="2.6496996"><ele>93.01</ele><time>2026-4-30T5:56:58Z</time></trkpt>
<trkpt lat="49.1217545" lon="2.6498857"><ele>92.97</ele><time>2026-4-30T5:57:1Z</time></trkpt>
<trkpt lat="49.1219027" lon="2.6500526"><ele>93.21</ele><time>2026-4-30T5:57:4Z</time></trkpt>
<trkpt lat="49.1220760" lon="2.6501381"><ele>93.15</ele><time>2026-4-30T5:57:7Z</time></trkpt>
<trkpt lat="49.1222721" lon="2.6501161"><ele>97.45</ele><time>2026-4-30T5:57:10Z</time></trkpt>
<trkpt lat="49.1224607" lon="2.6501801"><ele>98.17</ele><time>2026-4-30T5:57:13Z</time></trkpt>
<trkpt lat="49.1226363" lon="2.6503501"><ele>100.79</ele><time>2026-4-30T5:57:16Z</time></trkpt>
<trkpt lat="49.1227670" lon="2.6505476"><ele>100.67</ele><time>2026-4-30T5:57:19Z</time></trkpt>
<trkpt lat="49.1229251" lon="2.6507596"><ele>96.63</ele><time>2026-4-30T5:57:22Z</time></trkpt>
<trkpt lat="49.1230474" lon="2.6510033"><ele>98.78</ele><time>2026-4-30T5:57:25Z</time></trkpt>
<trkpt lat="49.1231698" lon="2.6512062"><ele>100.76</ele><time>2026-4-30T5:57:28Z</time></trkpt>
<trkpt lat="49.1233025" lon="2.6513977"><ele>100.58</ele><time>2026-4-30T5:57:31Z</time></trkpt>
<trkpt lat="49.1234598" lon="2.6515510"><ele>102.44</ele><time>2026-4-30T5:57:34Z</time></trkpt>
<trkpt lat="49.1236325" lon="2.6516917"><ele>101.10</ele><time>2026-4-30T5:57:37Z</time></trkpt>
<trkpt lat="49.1237841" lon="2.6518676"><ele>101.95</ele><time>2026-4-30T5:57:40Z</time></trkpt>
<trkpt lat="49.1239215" lon="2.6520539"><ele>103.46</ele><time>2026-4-30T5:57:43Z</time></trkpt>
<trkpt lat="49.1240804" lon="2.6522331"><ele>101.46</ele><time>2026-4-30T5:57:46Z</time></trkpt>
<trkpt lat="49.1242435" lon="2.6524069"><ele>100.34</ele><time>2026-4-30T5:57:49Z</time></trkpt>
<trkpt lat="49.1243843" lon="2.6526558"><ele>102.62</ele><time>2026-4-30T5:57:52Z</time></trkpt>
<trkpt lat="49.1244940" lon="2.6528952"><ele>107.77</ele><time>2026-4-30T5:57:55Z</time></trkpt>
<trkpt lat="49.1246696" lon="2.6527393"><ele>105.83</ele><time>2026-4-30T5:57:58Z</time></trkpt>
<trkpt lat="49.1247345" lon="2.6524581"><ele>102.23</ele><time>2026-4-30T5:58:1Z</time></trkpt>
<trkpt lat="49.1247879" lon="2.6521639"><ele>106.01</ele><time>2026-4-30T5:58:4Z</time></trkpt>
<trkpt lat="49.1248508" lon="2.6519056"><ele>108.15</ele><time>2026-4-30T5:58:7Z</time></trkpt>
<trkpt lat="49.1249264" lon="2.6516142"><ele>108.78</ele><time>2026-4-30T5:58:10Z</time></trkpt>
<trkpt lat="49.1250038" lon="2.6513157"><ele>109.97</ele><time>2026-4-30T5:58:13Z</time></trkpt>
<trkpt lat="49.1250974" lon="2.6510282"><ele>103.28</ele><time>2026-4-30T5:58:16Z</time></trkpt>
<trkpt lat="49.1251962" lon="2.6507535"><ele>103.00</ele><time>2026-4-30T5:58:19Z</time></trkpt>
<trkpt lat="49.1252632" lon="2.6504977"><ele>102.58</ele><time>2026-4-30T5:58:22Z</time></trkpt>
<trkpt lat="49.1253569" lon="2.6502300"><ele>101.92</ele><time>2026-4-30T5:58:25Z</time></trkpt>
<trkpt lat="49.1254360" lon="2.6499296"><ele>102.96</ele><time>2026-4-30T5:58:28Z</time></trkpt>
<trkpt lat="49.1254768" lon="2.6496096"><ele>99.56</ele><time>2026-4-30T5:58:31Z</time></trkpt>
<trkpt lat="49.1255436" lon="2.6493119"><ele>99.70</ele><time>2026-4-30T5:58:34Z</time></trkpt>
<trkpt lat="49.1256266" lon="2.6490539"><ele>98.96</ele><time>2026-4-30T5:58:37Z</time></trkpt>
<trkpt lat="49.1257071" lon="2.6487438"><ele>98.36</ele><time>2026-4-30T5:58:40Z</time></trkpt>
<trkpt lat="49.1257664" lon="2.6484827"><ele>98.28</ele><time>2026-4-30T5:58:43Z</time></trkpt>
<trkpt lat="49.1258290" lon="2.6482116"><ele>97.48</ele><time>2026-4-30T5:58:46Z</time></trkpt>
<trkpt lat="49.1259124" lon="2.6479459"><ele>96.46</ele><time>2026-4-30T5:58:49Z</time></trkpt>
<trkpt lat="49.1259927" lon="2.6476756"><ele>95.39</ele><time>2026-4-30T5:58:52Z</time></trkpt>
<trkpt lat="49.1260663" lon="2.6474237"><ele>95.43</ele><time>2026-4-30T5:58:55Z</time></trkpt>
<trkpt lat="49.1261194" lon="2.6471543"><ele>97.21</ele><time>2026-4-30T5:58:58Z</time></trkpt>
<trkpt lat="49.1261836" lon="2.6468872"><ele>99.52</ele><time>2026-4-30T5:59:1Z</time></trkpt>
<trkpt lat="49.1262423" lon="2.6465938"><ele>98.53</ele><time>2026-4-30T5:59:4Z</time></trkpt>
<trkpt lat="49.1263333" lon="2.6463474"><ele>97.96</ele><time>2026-4-30T5:59:7Z</time></trkpt>
<trkpt lat="49.1264368" lon="2.6460822"><ele>98.90</ele><time>2026-4-30T5:59:10Z</time></trkpt>
<trkpt lat="49.1265009" lon="2.6458046"><ele>100.14</ele><time>2026-4-30T5:59:13Z</time></trkpt>
<trkpt lat="49.1264375" lon="2.6460669"><ele>96.99</ele><time>2026-4-30T5:59:16Z</time></trkpt>
<trkpt lat="49.1263609" lon="2.6463352"><ele>95.26</ele><time>2026-4-30T5:59:19Z</time></trkpt>
<trkpt lat="49.1262398" lon="2.6465485"><ele>94.90</ele><time>2026-4-30T5:59:22Z</time></trkpt>
<trkpt lat="49.1262337" lon="2.6468302"><ele>96.73</ele><time>2026-4-30T5:59:25Z</time></trkpt>
<trkpt lat="49.1264134" lon="2.6469897"><ele>98.11</ele><time>2026-4-30T5:59:28Z</time></trkpt>
<trkpt lat="49.1265910" lon="2.6471238"><ele>97.67</ele><time>2026-4-30T5:59:31Z</time></trkpt>
<trkpt lat="49.1267775" lon="2.6473000"><ele>101.20</ele><time>2026-4-30T5:59:34Z</time></trkpt>
<trkpt lat="49.1269857" lon="2.6473947"><ele>100.46</ele><time>2026-4-30T5:59:37Z</time></trkpt>
<trkpt lat="49.1271598" lon="2.6474745"><ele>99.25</ele><time>2026-4-30T5:59:40Z</time></trkpt>
<trkpt lat="49.1273663" lon="2.6475561"><ele>97.53</ele><time>2026-4-30T5:59:43Z</time></trkpt>
<trkpt lat="49.1276775" lon="2.6477363"><ele>93.95</ele><time>2026-4-30T5:59:46Z</time></trkpt>
<trkpt lat="49.1278878" lon="2.6478657"><ele>92.61</ele><time>2026-4-30T5:59:49Z</time></trkpt>
<trkpt lat="49.1280437" lon="2.6480305"><ele>90.97</ele><time>2026-4-30T5:59:52Z</time></trkpt>
<trkpt lat="49.1282131" lon="2.6482221"><ele>91.86</ele><time>2026-4-30T5:59:55Z</time></trkpt>
<trkpt lat="49.1284178" lon="2.6483856"><ele>92.56</ele><time>2026-4-30T5:59:58Z</time></trkpt>
<trkpt lat="49.1285936" lon="2.6485591"><ele>92.03</ele><time>2026-4-30T6:0:1Z</time></trkpt>
<trkpt lat="49.1287797" lon="2.6487169"><ele>92.19</ele><time>2026-4-30T6:0:4Z</time></trkpt>
<trkpt lat="49.1289498" lon="2.6488920"><ele>92.25</ele><time>2026-4-30T6:0:7Z</time></trkpt>
<trkpt lat="49.1291008" lon="2.6490948"><ele>93.15</ele><time>2026-4-30T6:0:10Z</time></trkpt>
<trkpt lat="49.1292416" lon="2.6493083"><ele>95.23</ele><time>2026-4-30T6:0:13Z</time></trkpt>
<trkpt lat="49.1294041" lon="2.6494933"><ele>93.75</ele><time>2026-4-30T6:0:16Z</time></trkpt>
<trkpt lat="49.1295754" lon="2.6496888"><ele>93.33</ele><time>2026-4-30T6:0:19Z</time></trkpt>
<trkpt lat="49.1297386" lon="2.6498853"><ele>93.99</ele><time>2026-4-30T6:0:22Z</time></trkpt>
<trkpt lat="49.1299425" lon="2.6500317"><ele>94.19</ele><time>2026-4-30T6:0:25Z</time></trkpt>
<trkpt lat="49.1301345" lon="2.6500909"><ele>96.87</ele><time>2026-4-30T6:0:28Z</time></trkpt>
<trkpt lat="49.1303226" lon="2.6501249"><ele>96.66</ele><time>2026-4-30T6:0:31Z</time></trkpt>
<trkpt lat="49.1305103" lon="2.6502176"><ele>99.06</ele><time>2026-4-30T6:0:34Z</time></trkpt>
<trkpt lat="49.1307204" lon="2.6502076"><ele>96.08</ele><time>2026-4-30T6:0:37Z</time></trkpt>
<trkpt lat="49.1309003" lon="2.6502405"><ele>97.80</ele><time>2026-4-30T6:0:40Z</time></trkpt>
<trkpt lat="49.1310760" lon="2.6501291"><ele>98.79</ele><time>2026-4-30T6:0:43Z</time></trkpt>
<trkpt lat="49.1311604" lon="2.6498717"><ele>100.99</ele><time>2026-4-30T6:0:46Z</time></trkpt>
<trkpt lat="49.1312672" lon="2.6496393"><ele>103.85</ele><time>2026-4-30T6:0:49Z</time></trkpt>
<trkpt lat="49.1313910" lon="2.6494080"><ele>101.71</ele><time>2026-4-30T6:0:52Z</time></trkpt>
<trkpt lat="49.1314915" lon="2.6491586"><ele>96.60</ele><time>2026-4-30T6:0:55Z</time></trkpt>
<trkpt lat="49.1315786" lon="2.6488496"><ele>99.29</ele><time>2026-4-30T6:0:58Z</time></trkpt>
<trkpt lat="49.1316649" lon="2.6485672"><ele>101.08</ele><time>2026-4-30T6:1:1Z</time></trkpt>
<trkpt lat="49.1317485" lon="2.6482703"><ele>103.13</ele><time>2026-4-30T6:1:4Z</time></trkpt>
<trkpt lat="49.1318489" lon="2.6479892"><ele>104.72</ele><time>2026-4-30T6:1:7Z</time></trkpt>
<trkpt lat="49.1319713" lon="2.6477379"><ele>100.56</ele><time>2026-4-30T6:1:10Z</time></trkpt>
<trkpt lat="49.1320978" lon="2.6474592"><ele>93.15</ele><time>2026-4-30T6:1:13Z</time></trkpt>
<trkpt lat="49.1321616" lon="2.6471717"><ele>93.55</ele><time>2026-4-30T6:1:16Z</time></trkpt>
<trkpt lat="49.1322309" lon="2.6469002"><ele>95.49</ele><time>2026-4-30T6:1:19Z</time></trkpt>
<trkpt lat="49.1323498" lon="2.6466551"><ele>96.90</ele><time>2026-4-30T6:1:22Z</time></trkpt>
<trkpt lat="49.1324569" lon="2.6464095"><ele>95.09</ele><time>2026-4-30T6:1:25Z</time></trkpt>
<trkpt lat="49.1325476" lon="2.6461331"><ele>93.35</ele><time>2026-4-30T6:1:28Z</time></trkpt>
<trkpt lat="49.1326069" lon="2.6458619"><ele>103.62</ele><time>2026-4-30T6:1:31Z</time></trkpt>
<trkpt lat="49.1326704" lon="2.6455849"><ele>99.05</ele><time>2026-4-30T6:1:34Z</time></trkpt>
<trkpt lat="49.1327708" lon="2.6452974"><ele>99.46</ele><time>2026-4-30T6:1:37Z</time></trkpt>
<trkpt lat="49.1326976" lon="2.6450359"><ele>97.35</ele><time>2026-4-30T6:1:40Z</time></trkpt>
<trkpt lat="49.1325615" lon="2.6447985"><ele>96.74</ele><time>2026-4-30T6:1:43Z</time></trkpt>
<trkpt lat="49.1325369" lon="2.6444972"><ele>97.92</ele><time>2026-4-30T6:1:46Z</time></trkpt>
<trkpt lat="49.1324855" lon="2.6442205"><ele>98.44</ele><time>2026-4-30T6:1:49Z</time></trkpt>
<trkpt lat="49.1324215" lon="2.6439601"><ele>99.87</ele><time>2026-4-30T6:1:52Z</time></trkpt>
<trkpt lat="49.1323170" lon="2.6437318"><ele>100.67</ele><time>2026-4-30T6:1:55Z</time></trkpt>
<trkpt lat="49.1323474" lon="2.6434343"><ele>100.84</ele><time>2026-4-30T6:1:58Z</time></trkpt>
<trkpt lat="49.1324353" lon="2.6431544"><ele>100.12</ele><time>2026-4-30T6:2:1Z</time></trkpt>
<trkpt lat="49.1325149" lon="2.6428666"><ele>99.10</ele><time>2026-4-30T6:2:4Z</time></trkpt>
<trkpt lat="49.1326005" lon="2.6425354"><ele>93.06</ele><time>2026-4-30T6:2:7Z</time></trkpt>
<trkpt lat="49.1326738" lon="2.6422629"><ele>100.16</ele><time>2026-4-30T6:2:10Z</time></trkpt>
<trkpt lat="49.1327919" lon="2.6420055"><ele>91.62</ele><time>2026-4-30T6:2:13Z</time></trkpt>
<trkpt lat="49.1328662" lon="2.6417409"><ele>97.40</ele><time>2026-4-30T6:2:16Z</time></trkpt>
<trkpt lat="49.1329909" lon="2.6415108"><ele>99.02</ele><time>2026-4-30T6:2:19Z</time></trkpt>
<trkpt lat="49.1331750" lon="2.6414754"><ele>101.85</ele><time>2026-4-30T6:2:22Z</time></trkpt>
<trkpt lat="49.1333568" lon="2.6414735"><ele>102.12</ele><time>2026-4-30T6:2:25Z</time></trkpt>
<trkpt lat="49.1335472" lon="2.6414290"><ele>101.69</ele><time>2026-4-30T6:2:28Z</time></trkpt>
<trkpt lat="49.1337572" lon="2.6413935"><ele>103.50</ele><time>2026-4-30T6:2:31Z</time></trkpt>
<trkpt lat="49.1339432" lon="2.6414152"><ele>103.24</ele><time>2026-4-30T6:2:34Z</time></trkpt>
<trkpt lat="49.1341275" lon="2.6413955"><ele>101.72</ele><time>2026-4-30T6:2:37Z</time></trkpt>
<trkpt lat="49.1342654" lon="2.6412153"><ele>102.05</ele><time>2026-4-30T6:2:40Z</time></trkpt>
<trkpt lat="49.1344579" lon="2.6410984"><ele>100.78</ele><time>2026-4-30T6:2:43Z</time></trkpt>
<trkpt lat="49.1345691" lon="2.6408775"><ele>100.32</ele><time>2026-4-30T6:2:46Z</time></trkpt>
<trkpt lat="49.1346106" lon="2.6405834"><ele>98.43</ele><time>2026-4-30T6:2:49Z</time></trkpt>
<trkpt lat="49.1346415" lon="2.6402609"><ele>97.86</ele><time>2026-4-30T6:2:52Z</time></trkpt>
<trkpt lat="49.1346726" lon="2.6399832"><ele>97.25</ele><time>2026-4-30T6:2:55Z</time></trkpt>
<trkpt lat="49.1347141" lon="2.6396174"><ele>96.03</ele><time>2026-4-30T6:2:58Z</time></trkpt>
<trkpt lat="49.1347684" lon="2.6393063"><ele>94.58</ele><time>2026-4-30T6:3:1Z</time></trkpt>
<trkpt lat="49.1347942" lon="2.6390028"><ele>96.18</ele><time>2026-4-30T6:3:4Z</time></trkpt>
<trkpt lat="49.1348197" lon="2.6386881"><ele>94.56</ele><time>2026-4-30T6:3:7Z</time></trkpt>
<trkpt lat="49.1348610" lon="2.6384059"><ele>93.12</ele><time>2026-4-30T6:3:10Z</time></trkpt>
<trkpt lat="49.1349341" lon="2.6381069"><ele>93.40</ele><time>2026-4-30T6:3:13Z</time></trkpt>
<trkpt lat="49.1349534" lon="2.6377955"><ele>83.48</ele><time>2026-4-30T6:3:16Z</time></trkpt>
<trkpt lat="49.1349719" lon="2.6375121"><ele>91.32</ele><time>2026-4-30T6:3:19Z</time></trkpt>
<trkpt lat="49.1351677" lon="2.6374300"><ele>85.45</ele><time>2026-4-30T6:3:22Z</time></trkpt>
<trkpt lat="49.1353698" lon="2.6375165"><ele>74.70</ele><time>2026-4-30T6:3:25Z</time></trkpt>
<trkpt lat="49.1355660" lon="2.6375853"><ele>75.32</ele><time>2026-4-30T6:3:28Z</time></trkpt>
<trkpt lat="49.1357479" lon="2.6376185"><ele>75.29</ele><time>2026-4-30T6:3:31Z</time></trkpt>
<trkpt lat="49.1357986" lon="2.6376494"><ele>96.36</ele><time>2026-4-30T6:3:34Z</time></trkpt>
<trkpt lat="49.1359891" lon="2.6377226"><ele>89.11</ele><time>2026-4-30T6:3:37Z</time></trkpt>
<trkpt lat="49.1360360" lon="2.6380178"><ele>88.43</ele><time>2026-4-30T6:3:40Z</time></trkpt>
<trkpt lat="49.1360334" lon="2.6383040"><ele>92.27</ele><time>2026-4-30T6:3:43Z</time></trkpt>
<trkpt lat="49.1360207" lon="2.6386029"><ele>89.26</ele><time>2026-4-30T6:3:46Z</time></trkpt>
<trkpt lat="49.1360023" lon="2.6389052"><ele>83.13</ele><time>2026-4-30T6:3:49Z</time></trkpt>
<trkpt lat="49.1360337" lon="2.6392314"><ele>82.71</ele><time>2026-4-30T6:3:52Z</time></trkpt>
<trkpt lat="49.1360495" lon="2.6395197"><ele>82.26</ele><time>2026-4-30T6:3:55Z</time></trkpt>
<trkpt lat="49.1360822" lon="2.6398039"><ele>81.63</ele><time>2026-4-30T6:3:58Z</time></trkpt>
<trkpt lat="49.1361004" lon="2.6401003"><ele>80.61</ele><time>2026-4-30T6:4:1Z</time></trkpt>
<trkpt lat="49.1361259" lon="2.6404084"><ele>79.45</ele><time>2026-4-30T6:4:4Z</time></trkpt>
<trkpt lat="49.1360431" lon="2.6406784"><ele>78.59</ele><time>2026-4-30T6:4:7Z</time></trkpt>
<trkpt lat="49.1360821" lon="2.6409583"><ele>80.20</ele><time>2026-4-30T6:4:10Z</time></trkpt>
<trkpt lat="49.1359708" lon="2.6411891"><ele>84.13</ele><time>2026-4-30T6:4:13Z</time></trkpt>
<trkpt lat="49.1358976" lon="2.6414670"><ele>87.77</ele><time>2026-4-30T6:4:16Z</time></trkpt>
<trkpt lat="49.1357488" lon="2.6416358"><ele>88.14</ele><time>2026-4-30T6:4:19Z</time></trkpt>
<trkpt lat="49.1358716" lon="2.6418534"><ele>87.27</ele><time>2026-4-30T6:4:22Z</time></trkpt>
<trkpt lat="49.1360051" lon="2.6420518"><ele>89.53</ele><time>2026-4-30T6:4:25Z</time></trkpt>
<trkpt lat="49.1361523" lon="2.6422134"><ele>89.41</ele><time>2026-4-30T6:4:28Z</time></trkpt>
<trkpt lat="49.1363088" lon="2.6424274"><ele>91.07</ele><time>2026-4-30T6:4:31Z</time></trkpt>
<trkpt lat="49.1364313" lon="2.6426461"><ele>92.11</ele><time>2026-4-30T6:4:34Z</time></trkpt>
<trkpt lat="49.1366125" lon="2.6427215"><ele>97.43</ele><time>2026-4-30T6:4:37Z</time></trkpt>
<trkpt lat="49.1367987" lon="2.6428244"><ele>95.07</ele><time>2026-4-30T6:4:40Z</time></trkpt>
<trkpt lat="49.1369872" lon="2.6428996"><ele>97.03</ele><time>2026-4-30T6:4:43Z</time></trkpt>
<trkpt lat="49.1371724" lon="2.6428929"><ele>96.51</ele><time>2026-4-30T6:4:46Z</time></trkpt>
<trkpt lat="49.1374027" lon="2.6429660"><ele>95.01</ele><time>2026-4-30T6:4:49Z</time></trkpt>
<trkpt lat="49.1375716" lon="2.6432045"><ele>95.70</ele><time>2026-4-30T6:4:52Z</time></trkpt>
<trkpt lat="49.1377469" lon="2.6434625"><ele>95.23</ele><time>2026-4-30T6:4:55Z</time></trkpt>
<trkpt lat="49.1379243" lon="2.6437018"><ele>94.44</ele><time>2026-4-30T6:4:58Z</time></trkpt>
<trkpt lat="49.1380813" lon="2.6439862"><ele>95.19</ele><time>2026-4-30T6:5:1Z</time></trkpt>
<trkpt lat="49.1382136" lon="2.6442619"><ele>95.03</ele><time>2026-4-30T6:5:4Z</time></trkpt>
<trkpt lat="49.1383368" lon="2.6445320"><ele>95.04</ele><time>2026-4-30T6:5:7Z</time></trkpt>
<trkpt lat="49.1384199" lon="2.6448211"><ele>95.44</ele><time>2026-4-30T6:5:10Z</time></trkpt>
<trkpt lat="49.1385130" lon="2.6451044"><ele>95.46</ele><time>2026-4-30T6:5:13Z</time></trkpt>
<trkpt lat="49.1386129" lon="2.6453339"><ele>96.64</ele><time>2026-4-30T6:5:16Z</time></trkpt>
<trkpt lat="49.1387066" lon="2.6456050"><ele>96.23</ele><time>2026-4-30T6:5:19Z</time></trkpt>
<trkpt lat="49.1388297" lon="2.6458969"><ele>96.06</ele><time>2026-4-30T6:5:22Z</time></trkpt>
<trkpt lat="49.1389841" lon="2.6461733"><ele>94.24</ele><time>2026-4-30T6:5:25Z</time></trkpt>
<trkpt lat="49.1391171" lon="2.6464271"><ele>91.42</ele><time>2026-4-30T6:5:28Z</time></trkpt>
<trkpt lat="49.1393240" lon="2.6464646"><ele>91.36</ele><time>2026-4-30T6:5:31Z</time></trkpt>
<trkpt lat="49.1395036" lon="2.6463544"><ele>91.75</ele><time>2026-4-30T6:5:34Z</time></trkpt>
<trkpt lat="49.1396775" lon="2.6462136"><ele>93.70</ele><time>2026-4-30T6:5:37Z</time></trkpt>
<trkpt lat="49.1397856" lon="2.6459585"><ele>97.10</ele><time>2026-4-30T6:5:40Z</time></trkpt>
<trkpt lat="49.1399762" lon="2.6458333"><ele>98.50</ele><time>2026-4-30T6:5:43Z</time></trkpt>
<trkpt lat="49.1401648" lon="2.6458922"><ele>95.54</ele><time>2026-4-30T6:5:46Z</time></trkpt>
<trkpt lat="49.1403533" lon="2.6459418"><ele>94.39</ele><time>2026-4-30T6:5:49Z</time></trkpt>
<trkpt lat="49.1405325" lon="2.6459727"><ele>97.10</ele><time>2026-4-30T6:5:52Z</time></trkpt>
<trkpt lat="49.1407183" lon="2.6460156"><ele>95.78</ele><time>2026-4-30T6:5:55Z</time></trkpt>
<trkpt lat="49.1409086" lon="2.6461649"><ele>93.89</ele><time>2026-4-30T6:5:58Z</time></trkpt>
<trkpt lat="49.1412048" lon="2.6463485"><ele>92.60</ele><time>2026-4-30T6:6:1Z</time></trkpt>
<trkpt lat="49.1413854" lon="2.6464557"><ele>93.03</ele><time>2026-4-30T6:6:4Z</time></trkpt>
<trkpt lat="49.1415130" lon="2.6466532"><ele>92.99</ele><time>2026-4-30T6:6:7Z</time></trkpt>
<trkpt lat="49.1416498" lon="2.6468346"><ele>94.94</ele><time>2026-4-30T6:6:10Z</time></trkpt>
<trkpt lat="49.1417729" lon="2.6471157"><ele>96.96</ele><time>2026-4-30T6:6:13Z</time></trkpt>
<trkpt lat="49.1419084" lon="2.6473333"><ele>99.26</ele><time>2026-4-30T6:6:16Z</time></trkpt>
<trkpt lat="49.1420947" lon="2.6476386"><ele>97.03</ele><time>2026-4-30T6:6:19Z</time></trkpt>
<trkpt lat="49.1422247" lon="2.6478469"><ele>96.53</ele><time>2026-4-30T6:6:22Z</time></trkpt>
<trkpt lat="49.1423835" lon="2.6480542"><ele>97.31</ele><time>2026-4-30T6:6:25Z</time></trkpt>
<trkpt lat="49.1425445" lon="2.6482485"><ele>100.81</ele><time>2026-4-30T6:6:28Z</time></trkpt>
<trkpt lat="49.1426975" lon="2.6484176"><ele>105.06</ele><time>2026-4-30T6:6:31Z</time></trkpt>
<trkpt lat="49.1428536" lon="2.6486150"><ele>103.79</ele><time>2026-4-30T6:6:34Z</time></trkpt>
<trkpt lat="49.1430140" lon="2.6488478"><ele>101.67</ele><time>2026-4-30T6:6:37Z</time></trkpt>
<trkpt lat="49.1431290" lon="2.6490819"><ele>99.79</ele><time>2026-4-30T6:6:40Z</time></trkpt>
<trkpt lat="49.1432623" lon="2.6492752"><ele>99.86</ele><time>2026-4-30T6:6:43Z</time></trkpt>
<trkpt lat="49.1435015" lon="2.6495182"><ele>100.52</ele><time>2026-4-30T6:6:46Z</time></trkpt>
<trkpt lat="49.1436648" lon="2.6496498"><ele>102.60</ele><time>2026-4-30T6:6:49Z</time></trkpt>
<trkpt lat="49.1437921" lon="2.6494071"><ele>101.74</ele><time>2026-4-30T6:6:52Z</time></trkpt>
<trkpt lat="49.1439059" lon="2.6491888"><ele>102.31</ele><time>2026-4-30T6:6:55Z</time></trkpt>
<trkpt lat="49.1440308" lon="2.6489822"><ele>100.76</ele><time>2026-4-30T6:6:58Z</time></trkpt>
<trkpt lat="49.1441227" lon="2.6487225"><ele>99.91</ele><time>2026-4-30T6:7:1Z</time></trkpt>
<trkpt lat="49.1442229" lon="2.6484371"><ele>100.20</ele><time>2026-4-30T6:7:4Z</time></trkpt>
<trkpt lat="49.1442935" lon="2.6481659"><ele>99.76</ele><time>2026-4-30T6:7:7Z</time></trkpt>
<trkpt lat="49.1443411" lon="2.6478774"><ele>99.51</ele><time>2026-4-30T6:7:10Z</time></trkpt>
<trkpt lat="49.1444076" lon="2.6476160"><ele>97.96</ele><time>2026-4-30T6:7:13Z</time></trkpt>
<trkpt lat="49.1444658" lon="2.6473481"><ele>95.47</ele><time>2026-4-30T6:7:16Z</time></trkpt>
<trkpt lat="49.1445492" lon="2.6470932"><ele>94.79</ele><time>2026-4-30T6:7:19Z</time></trkpt>
<trkpt lat="49.1446864" lon="2.6469107"><ele>96.77</ele><time>2026-4-30T6:7:22Z</time></trkpt>
<trkpt lat="49.1448498" lon="2.6467515"><ele>94.58</ele><time>2026-4-30T6:7:25Z</time></trkpt>
<trkpt lat="49.1450328" lon="2.6465553"><ele>96.04</ele><time>2026-4-30T6:7:28Z</time></trkpt>
<trkpt lat="49.1451856" lon="2.6463460"><ele>96.55</ele><time>2026-4-30T6:7:31Z</time></trkpt>
<trkpt lat="49.1453436" lon="2.6461638"><ele>102.06</ele><time>2026-4-30T6:7:34Z</time></trkpt>
<trkpt lat="49.1455023" lon="2.6459975"><ele>109.07</ele><time>2026-4-30T6:7:37Z</time></trkpt>
<trkpt lat="49.1456563" lon="2.6458125"><ele>108.07</ele><time>2026-4-30T6:7:40Z</time></trkpt>
<trkpt lat="49.1457236" lon="2.6455291"><ele>105.43</ele><time>2026-4-30T6:7:43Z</time></trkpt>
<trkpt lat="49.1457358" lon="2.6452064"><ele>104.81</ele><time>2026-4-30T6:7:46Z</time></trkpt>
<trkpt lat="49.1457422" lon="2.6449257"><ele>104.77</ele><time>2026-4-30T6:7:49Z</time></trkpt>
<trkpt lat="49.1458101" lon="2.6446250"><ele>104.37</ele><time>2026-4-30T6:7:52Z</time></trkpt>
<trkpt lat="49.1459583" lon="2.6444107"><ele>104.54</ele><time>2026-4-30T6:7:55Z</time></trkpt>
<trkpt lat="49.1461268" lon="2.6442337"><ele>105.33</ele><time>2026-4-30T6:7:58Z</time></trkpt>
<trkpt lat="49.1462922" lon="2.6440271"><ele>105.61</ele><time>2026-4-30T6:8:1Z</time></trkpt>
<trkpt lat="49.1464344" lon="2.6438367"><ele>107.98</ele><time>2026-4-30T6:8:4Z</time></trkpt>
<trkpt lat="49.1465954" lon="2.6437123"><ele>109.15</ele><time>2026-4-30T6:8:7Z</time></trkpt>
<trkpt lat="49.1466754" lon="2.6434564"><ele>105.08</ele><time>2026-4-30T6:8:10Z</time></trkpt>
<trkpt lat="49.1466682" lon="2.6431804"><ele>100.91</ele><time>2026-4-30T6:8:13Z</time></trkpt>
<trkpt lat="49.1466320" lon="2.6428778"><ele>98.73</ele><time>2026-4-30T6:8:16Z</time></trkpt>
<trkpt lat="49.1465483" lon="2.6426255"><ele>101.71</ele><time>2026-4-30T6:8:19Z</time></trkpt>
<trkpt lat="49.1464556" lon="2.6423394"><ele>103.57</ele><time>2026-4-30T6:8:22Z</time></trkpt>
<trkpt lat="49.1463679" lon="2.6420864"><ele>104.96</ele><time>2026-4-30T6:8:25Z</time></trkpt>
<trkpt lat="49.1462939" lon="2.6418092"><ele>107.54</ele><time>2026-4-30T6:8:28Z</time></trkpt>
<trkpt lat="49.1461830" lon="2.6415291"><ele>107.19</ele><time>2026-4-30T6:8:31Z</time></trkpt>
<trkpt lat="49.1460683" lon="2.6412705"><ele>106.06</ele><time>2026-4-30T6:8:34Z</time></trkpt>
<trkpt lat="49.1459661" lon="2.6410117"><ele>107.66</ele><time>2026-4-30T6:8:37Z</time></trkpt>
<trkpt lat="49.1459388" lon="2.6407213"><ele>104.77</ele><time>2026-4-30T6:8:40Z</time></trkpt>
<trkpt lat="49.1459033" lon="2.6404504"><ele>101.13</ele><time>2026-4-30T6:8:43Z</time></trkpt>
<trkpt lat="49.1460964" lon="2.6403317"><ele>101.96</ele><time>2026-4-30T6:8:46Z</time></trkpt>
<trkpt lat="49.1462313" lon="2.6401441"><ele>99.76</ele><time>2026-4-30T6:8:49Z</time></trkpt>
<trkpt lat="49.1463882" lon="2.6399397"><ele>101.67</ele><time>2026-4-30T6:8:52Z</time></trkpt>
<trkpt lat="49.1465363" lon="2.6397478"><ele>103.18</ele><time>2026-4-30T6:8:55Z</time></trkpt>
<trkpt lat="49.1466839" lon="2.6395494"><ele>103.15</ele><time>2026-4-30T6:8:58Z</time></trkpt>
<trkpt lat="49.1468372" lon="2.6393524"><ele>104.16</ele><time>2026-4-30T6:9:1Z</time></trkpt>
<trkpt lat="49.1469817" lon="2.6391733"><ele>103.95</ele><time>2026-4-30T6:9:4Z</time></trkpt>
<trkpt lat="49.1471496" lon="2.6389758"><ele>105.38</ele><time>2026-4-30T6:9:7Z</time></trkpt>
<trkpt lat="49.1472426" lon="2.6387380"><ele>102.59</ele><time>2026-4-30T6:9:10Z</time></trkpt>
<trkpt lat="49.1472270" lon="2.6384318"><ele>101.32</ele><time>2026-4-30T6:9:13Z</time></trkpt>
<trkpt lat="49.1472042" lon="2.6381467"><ele>101.84</ele><time>2026-4-30T6:9:16Z</time></trkpt>
<trkpt lat="49.1471915" lon="2.6378399"><ele>100.57</ele><time>2026-4-30T6:9:19Z</time></trkpt>
<trkpt lat="49.1471774" lon="2.6375376"><ele>99.26</ele><time>2026-4-30T6:9:22Z</time></trkpt>
<trkpt lat="49.1471631" lon="2.6372232"><ele>96.92</ele><time>2026-4-30T6:9:25Z</time></trkpt>
<trkpt lat="49.1471346" lon="2.6369095"><ele>97.45</ele><time>2026-4-30T6:9:28Z</time></trkpt>
<trkpt lat="49.1471268" lon="2.6366088"><ele>96.09</ele><time>2026-4-30T6:9:31Z</time></trkpt>
<trkpt lat="49.1471008" lon="2.6363153"><ele>96.95</ele><time>2026-4-30T6:9:34Z</time></trkpt>
<trkpt lat="49.1470725" lon="2.6360320"><ele>98.08</ele><time>2026-4-30T6:9:37Z</time></trkpt>
<trkpt lat="49.1470615" lon="2.6357499"><ele>100.58</ele><time>2026-4-30T6:9:40Z</time></trkpt>
<trkpt lat="49.1470207" lon="2.6354507"><ele>100.33</ele><time>2026-4-30T6:9:43Z</time></trkpt>
<trkpt lat="49.1469786" lon="2.6351576"><ele>101.89</ele><time>2026-4-30T6:9:46Z</time></trkpt>
<trkpt lat="49.1469685" lon="2.6348779"><ele>98.62</ele><time>2026-4-30T6:9:49Z</time></trkpt>
<trkpt lat="49.1469457" lon="2.6345647"><ele>98.23</ele><time>2026-4-30T6:9:52Z</time></trkpt>
<trkpt lat="49.1469050" lon="2.6342560"><ele>98.78</ele><time>2026-4-30T6:9:55Z</time></trkpt>
<trkpt lat="49.1468824" lon="2.6339643"><ele>100.37</ele><time>2026-4-30T6:9:58Z</time></trkpt>
<trkpt lat="49.1468635" lon="2.6336533"><ele>100.46</ele><time>2026-4-30T6:10:1Z</time></trkpt>
<trkpt lat="49.1468293" lon="2.6333636"><ele>101.18</ele><time>2026-4-30T6:10:4Z</time></trkpt>
<trkpt lat="49.1467960" lon="2.6330600"><ele>102.11</ele><time>2026-4-30T6:10:7Z</time></trkpt>
<trkpt lat="49.1467752" lon="2.6327543"><ele>100.44</ele><time>2026-4-30T6:10:10Z</time></trkpt>
<trkpt lat="49.1467377" lon="2.6324231"><ele>96.81</ele><time>2026-4-30T6:10:13Z</time></trkpt>
<trkpt lat="49.1467181" lon="2.6321238"><ele>95.95</ele><time>2026-4-30T6:10:16Z</time></trkpt>
<trkpt lat="49.1466963" lon="2.6318230"><ele>95.43</ele><time>2026-4-30T6:10:19Z</time></trkpt>
<trkpt lat="49.1466687" lon="2.6315047"><ele>94.84</ele><time>2026-4-30T6:10:22Z</time></trkpt>
<trkpt lat="49.1465943" lon="2.6312542"><ele>95.44</ele><time>2026-4-30T6:10:25Z</time></trkpt>
<trkpt lat="49.1465102" lon="2.6315331"><ele>93.48</ele><time>2026-4-30T6:10:28Z</time></trkpt>
<trkpt lat="49.1463436" lon="2.6317490"><ele>92.71</ele><time>2026-4-30T6:10:31Z</time></trkpt>
<trkpt lat="49.1461720" lon="2.6318373"><ele>91.37</ele><time>2026-4-30T6:10:34Z</time></trkpt>
<trkpt lat="49.1459853" lon="2.6320429"><ele>92.83</ele><time>2026-4-30T6:10:37Z</time></trkpt>
<trkpt lat="49.1458876" lon="2.6322863"><ele>93.49</ele><time>2026-4-30T6:10:40Z</time></trkpt>
<trkpt lat="49.1458474" lon="2.6326130"><ele>93.00</ele><time>2026-4-30T6:10:43Z</time></trkpt>
<trkpt lat="49.1459189" lon="2.6328934"><ele>94.75</ele><time>2026-4-30T6:10:46Z</time></trkpt>
<trkpt lat="49.1458814" lon="2.6331724"><ele>93.63</ele><time>2026-4-30T6:10:49Z</time></trkpt>
<trkpt lat="49.1457762" lon="2.6334104"><ele>94.88</ele><time>2026-4-30T6:10:52Z</time></trkpt>
<trkpt lat="49.1456653" lon="2.6336303"><ele>97.59</ele><time>2026-4-30T6:10:55Z</time></trkpt>
<trkpt lat="49.1454799" lon="2.6335722"><ele>96.78</ele><time>2026-4-30T6:10:58Z</time></trkpt>
<trkpt lat="49.1452929" lon="2.6334153"><ele>94.56</ele><time>2026-4-30T6:11:1Z</time></trkpt>
<trkpt lat="49.1450886" lon="2.6332812"><ele>95.84</ele><time>2026-4-30T6:11:4Z</time></trkpt>
<trkpt lat="49.1449258" lon="2.6331434"><ele>97.75</ele><time>2026-4-30T6:11:7Z</time></trkpt>
<trkpt lat="49.1447569" lon="2.6330005"><ele>100.00</ele><time>2026-4-30T6:11:10Z</time></trkpt>
<trkpt lat="49.1445619" lon="2.6329829"><ele>102.46</ele><time>2026-4-30T6:11:13Z</time></trkpt>
<trkpt lat="49.1444168" lon="2.6327858"><ele>104.47</ele><time>2026-4-30T6:11:16Z</time></trkpt>
<trkpt lat="49.1442494" lon="2.6326328"><ele>108.00</ele><time>2026-4-30T6:11:19Z</time></trkpt>
<trkpt lat="49.1440725" lon="2.6324881"><ele>107.24</ele><time>2026-4-30T6:11:22Z</time></trkpt>
<trkpt lat="49.1439106" lon="2.6323401"><ele>107.25</ele><time>2026-4-30T6:11:25Z</time></trkpt>
<trkpt lat="49.1437174" lon="2.6321852"><ele>107.65</ele><time>2026-4-30T6:11:28Z</time></trkpt>
<trkpt lat="49.1435389" lon="2.6320317"><ele>108.01</ele><time>2026-4-30T6:11:31Z</time></trkpt>
<trkpt lat="49.1433804" lon="2.6318804"><ele>106.35</ele><time>2026-4-30T6:11:34Z</time></trkpt>
<trkpt lat="49.1432023" lon="2.6317711"><ele>104.40</ele><time>2026-4-30T6:11:37Z</time></trkpt>
<trkpt lat="49.1430189" lon="2.6316432"><ele>103.33</ele><time>2026-4-30T6:11:40Z</time></trkpt>
<trkpt lat="49.1428458" lon="2.6314983"><ele>101.14</ele><time>2026-4-30T6:11:43Z</time></trkpt>
<trkpt lat="49.1426818" lon="2.6313350"><ele>101.22</ele><time>2026-4-30T6:11:46Z</time></trkpt>
<trkpt lat="49.1424788" lon="2.6312046"><ele>100.76</ele><time>2026-4-30T6:11:49Z</time></trkpt>
<trkpt lat="49.1422926" lon="2.6310395"><ele>98.60</ele><time>2026-4-30T6:11:52Z</time></trkpt>
<trkpt lat="49.1421307" lon="2.6308979"><ele>95.83</ele><time>2026-4-30T6:11:55Z</time></trkpt>
<trkpt lat="49.1419572" lon="2.6307775"><ele>93.94</ele><time>2026-4-30T6:11:58Z</time></trkpt>
<trkpt lat="49.1417723" lon="2.6307991"><ele>93.09</ele><time>2026-4-30T6:12:1Z</time></trkpt>
<trkpt lat="49.1415624" lon="2.6308349"><ele>90.79</ele><time>2026-4-30T6:12:4Z</time></trkpt>
<trkpt lat="49.1413826" lon="2.6308595"><ele>91.10</ele><time>2026-4-30T6:12:7Z</time></trkpt>
<trkpt lat="49.1411711" lon="2.6309077"><ele>91.96</ele><time>2026-4-30T6:12:10Z</time></trkpt>
<trkpt lat="49.1409881" lon="2.6309650"><ele>93.29</ele><time>2026-4-30T6:12:13Z</time></trkpt>
<trkpt lat="49.1407671" lon="2.6309865"><ele>92.53</ele><time>2026-4-30T6:12:16Z</time></trkpt>
<trkpt lat="49.1405728" lon="2.6310029"><ele>96.43</ele><time>2026-4-30T6:12:19Z</time></trkpt>
<trkpt lat="49.1403796" lon="2.6310425"><ele>95.62</ele><time>2026-4-30T6:12:22Z</time></trkpt>
<trkpt lat="49.1401825" lon="2.6310603"><ele>94.44</ele><time>2026-4-30T6:12:25Z</time></trkpt>
<trkpt lat="49.1399687" lon="2.6310909"><ele>95.38</ele><time>2026-4-30T6:12:28Z</time></trkpt>
<trkpt lat="49.1397635" lon="2.6311196"><ele>88.67</ele><time>2026-4-30T6:12:31Z</time></trkpt>
<trkpt lat="49.1395387" lon="2.6311561"><ele>84.41</ele><time>2026-4-30T6:12:34Z</time></trkpt>
<trkpt lat="49.1393338" lon="2.6311987"><ele>85.49</ele><time>2026-4-30T6:12:37Z</time></trkpt>
<trkpt lat="49.1391253" lon="2.6312023"><ele>84.43</ele><time>2026-4-30T6:12:40Z</time></trkpt>
<trkpt lat="49.1389166" lon="2.6312543"><ele>83.86</ele><time>2026-4-30T6:12:43Z</time></trkpt>
<trkpt lat="49.1387301" lon="2.6312891"><ele>82.50</ele><time>2026-4-30T6:12:46Z</time></trkpt>
<trkpt lat="49.1385304" lon="2.6313037"><ele>80.76</ele><time>2026-4-30T6:12:49Z</time></trkpt>
<trkpt lat="49.1383439" lon="2.6313279"><ele>81.06</ele><time>2026-4-30T6:12:52Z</time></trkpt>
<trkpt lat="49.1382362" lon="2.6311013"><ele>79.78</ele><time>2026-4-30T6:12:55Z</time></trkpt>
<trkpt lat="49.1381486" lon="2.6308396"><ele>80.59</ele><time>2026-4-30T6:12:58Z</time></trkpt>
<trkpt lat="49.1380387" lon="2.6305885"><ele>79.17</ele><time>2026-4-30T6:13:1Z</time></trkpt>
<trkpt lat="49.1379314" lon="2.6303281"><ele>80.53</ele><time>2026-4-30T6:13:4Z</time></trkpt>
<trkpt lat="49.1378188" lon="2.6301075"><ele>79.49</ele><time>2026-4-30T6:13:7Z</time></trkpt>
<trkpt lat="49.1377235" lon="2.6298606"><ele>80.38</ele><time>2026-4-30T6:13:10Z</time></trkpt>
<trkpt lat="49.1378811" lon="2.6296675"><ele>82.40</ele><time>2026-4-30T6:13:13Z</time></trkpt>
<trkpt lat="49.1380291" lon="2.6294682"><ele>85.51</ele><time>2026-4-30T6:13:16Z</time></trkpt>
<trkpt lat="49.1381864" lon="2.6293318"><ele>84.32</ele><time>2026-4-30T6:13:19Z</time></trkpt>
<trkpt lat="49.1383231" lon="2.6291217"><ele>85.32</ele><time>2026-4-30T6:13:22Z</time></trkpt>
<trkpt lat="49.1384916" lon="2.6289620"><ele>88.05</ele><time>2026-4-30T6:13:25Z</time></trkpt>
<trkpt lat="49.1386413" lon="2.6287872"><ele>89.37</ele><time>2026-4-30T6:13:28Z</time></trkpt>
<trkpt lat="49.1388053" lon="2.6286023"><ele>92.09</ele><time>2026-4-30T6:13:31Z</time></trkpt>
<trkpt lat="49.1389546" lon="2.6284290"><ele>97.10</ele><time>2026-4-30T6:13:34Z</time></trkpt>
<trkpt lat="49.1391103" lon="2.6282598"><ele>96.22</ele><time>2026-4-30T6:13:37Z</time></trkpt>
<trkpt lat="49.1392466" lon="2.6280646"><ele>94.87</ele><time>2026-4-30T6:13:40Z</time></trkpt>
<trkpt lat="49.1393919" lon="2.6278883"><ele>93.08</ele><time>2026-4-30T6:13:43Z</time></trkpt>
<trkpt lat="49.1392775" lon="2.6276300"><ele>100.20</ele><time>2026-4-30T6:13:46Z</time></trkpt>
<trkpt lat="49.1391929" lon="2.6273846"><ele>97.60</ele><time>2026-4-30T6:13:49Z</time></trkpt>
<trkpt lat="49.1390700" lon="2.6271119"><ele>95.95</ele><time>2026-4-30T6:13:52Z</time></trkpt>
<trkpt lat="49.1389373" lon="2.6267976"><ele>94.36</ele><time>2026-4-30T6:13:55Z</time></trkpt>
<trkpt lat="49.1388260" lon="2.6265415"><ele>93.08</ele><time>2026-4-30T6:13:58Z</time></trkpt>
<trkpt lat="49.1387001" lon="2.6262713"><ele>96.42</ele><time>2026-4-30T6:14:1Z</time></trkpt>
<trkpt lat="49.1385749" lon="2.6260431"><ele>94.25</ele><time>2026-4-30T6:14:4Z</time></trkpt>
<trkpt lat="49.1385098" lon="2.6257539"><ele>93.75</ele><time>2026-4-30T6:14:7Z</time></trkpt>
<trkpt lat="49.1384839" lon="2.6254540"><ele>95.21</ele><time>2026-4-30T6:14:10Z</time></trkpt>
<trkpt lat="49.1384822" lon="2.6251512"><ele>93.86</ele><time>2026-4-30T6:14:13Z</time></trkpt>
<trkpt lat="49.1385264" lon="2.6248441"><ele>90.70</ele><time>2026-4-30T6:14:16Z</time></trkpt>
<trkpt lat="49.1385314" lon="2.6245314"><ele>89.44</ele><time>2026-4-30T6:14:19Z</time></trkpt>
<trkpt lat="49.1384759" lon="2.6242338"><ele>92.80</ele><time>2026-4-30T6:14:22Z</time></trkpt>
<trkpt lat="49.1384888" lon="2.6239487"><ele>92.06</ele><time>2026-4-30T6:14:25Z</time></trkpt>
<trkpt lat="49.1385212" lon="2.6236457"><ele>90.22</ele><time>2026-4-30T6:14:28Z</time></trkpt>
<trkpt lat="49.1385118" lon="2.6233681"><ele>91.82</ele><time>2026-4-30T6:14:31Z</time></trkpt>
<trkpt lat="49.1385020" lon="2.6230583"><ele>92.34</ele><time>2026-4-30T6:14:34Z</time></trkpt>
<trkpt lat="49.1385645" lon="2.6227829"><ele>95.05</ele><time>2026-4-30T6:14:37Z</time></trkpt>
<trkpt lat="49.1386342" lon="2.6225139"><ele>94.03</ele><time>2026-4-30T6:14:40Z</time></trkpt>
<trkpt lat="49.1387083" lon="2.6222625"><ele>92.45</ele><time>2026-4-30T6:14:43Z</time></trkpt>
<trkpt lat="49.1388080" lon="2.6219427"><ele>91.37</ele><time>2026-4-30T6:14:46Z</time></trkpt>
<trkpt lat="49.1388649" lon="2.6216782"><ele>91.72</ele><time>2026-4-30T6:14:49Z</time></trkpt>
<trkpt lat="49.1389234" lon="2.6214119"><ele>90.29</ele><time>2026-4-30T6:14:52Z</time></trkpt>
<trkpt lat="49.1390008" lon="2.6211218"><ele>87.20</ele><time>2026-4-30T6:14:55Z</time></trkpt>
<trkpt lat="49.1390732" lon="2.6208281"><ele>84.89</ele><time>2026-4-30T6:14:58Z</time></trkpt>
<trkpt lat="49.1391767" lon="2.6205183"><ele>81.73</ele><time>2026-4-30T6:15:1Z</time></trkpt>
<trkpt lat="49.1392621" lon="2.6202325"><ele>77.20</ele><time>2026-4-30T6:15:4Z</time></trkpt>
<trkpt lat="49.1393061" lon="2.6199378"><ele>82.00</ele><time>2026-4-30T6:15:7Z</time></trkpt>
<trkpt lat="49.1393525" lon="2.6196577"><ele>81.71</ele><time>2026-4-30T6:15:10Z</time></trkpt>
<trkpt lat="49.1394515" lon="2.6193774"><ele>79.37</ele><time>2026-4-30T6:15:13Z</time></trkpt>
<trkpt lat="49.1395588" lon="2.6191443"><ele>79.28</ele><time>2026-4-30T6:15:16Z</time></trkpt>
<trkpt lat="49.1396532" lon="2.6188537"><ele>80.86</ele><time>2026-4-30T6:15:19Z</time></trkpt>
<trkpt lat="49.1397033" lon="2.6185494"><ele>83.88</ele><time>2026-4-30T6:15:22Z</time></trkpt>
<trkpt lat="49.1397993" lon="2.6182287"><ele>79.59</ele><time>2026-4-30T6:15:25Z</time></trkpt>
<trkpt lat="49.1398952" lon="2.6179567"><ele>76.81</ele><time>2026-4-30T6:15:28Z</time></trkpt>
<trkpt lat="49.1399785" lon="2.6176749"><ele>75.05</ele><time>2026-4-30T6:15:31Z</time></trkpt>
<trkpt lat="49.1400778" lon="2.6174075"><ele>72.92</ele><time>2026-4-30T6:15:34Z</time></trkpt>
<trkpt lat="49.1399260" lon="2.6171712"><ele>78.14</ele><time>2026-4-30T6:15:37Z</time></trkpt>
<trkpt lat="49.1397805" lon="2.6169622"><ele>79.77</ele><time>2026-4-30T6:15:40Z</time></trkpt>
<trkpt lat="49.1395753" lon="2.6168364"><ele>80.19</ele><time>2026-4-30T6:15:43Z</time></trkpt>
<trkpt lat="49.1393891" lon="2.6166902"><ele>79.66</ele><time>2026-4-30T6:15:46Z</time></trkpt>
<trkpt lat="49.1392859" lon="2.6164216"><ele>81.49</ele><time>2026-4-30T6:15:49Z</time></trkpt>
<trkpt lat="49.1392694" lon="2.6161085"><ele>77.89</ele><time>2026-4-30T6:15:52Z</time></trkpt>
<trkpt lat="49.1393765" lon="2.6158462"><ele>79.39</ele><time>2026-4-30T6:15:55Z</time></trkpt>
<trkpt lat="49.1394934" lon="2.6156184"><ele>79.16</ele><time>2026-4-30T6:15:58Z</time></trkpt>
<trkpt lat="49.1396513" lon="2.6153886"><ele>74.43</ele><time>2026-4-30T6:16:1Z</time></trkpt>
<trkpt lat="49.1397546" lon="2.6151622"><ele>74.26</ele><time>2026-4-30T6:16:4Z</time></trkpt>
<trkpt lat="49.1398818" lon="2.6148634"><ele>74.84</ele><time>2026-4-30T6:16:7Z</time></trkpt>
<trkpt lat="49.1399824" lon="2.6146175"><ele>72.92</ele><time>2026-4-30T6:16:10Z</time></trkpt>
<trkpt lat="49.1400898" lon="2.6143915"><ele>73.77</ele><time>2026-4-30T6:16:13Z</time></trkpt>
<trkpt lat="49.1402579" lon="2.6141747"><ele>74.57</ele><time>2026-4-30T6:16:16Z</time></trkpt>
<trkpt lat="49.1403915" lon="2.6139015"><ele>75.40</ele><time>2026-4-30T6:16:19Z</time></trkpt>
<trkpt lat="49.1404857" lon="2.6136602"><ele>73.11</ele><time>2026-4-30T6:16:22Z</time></trkpt>
<trkpt lat="49.1406026" lon="2.6134107"><ele>71.49</ele><time>2026-4-30T6:16:25Z</time></trkpt>
<trkpt lat="49.1407397" lon="2.6131845"><ele>70.96</ele><time>2026-4-30T6:16:28Z</time></trkpt>
<trkpt lat="49.1408059" lon="2.6129138"><ele>70.98</ele><time>2026-4-30T6:16:31Z</time></trkpt>
<trkpt lat="49.1408975" lon="2.6126391"><ele>68.04</ele><time>2026-4-30T6:16:34Z</time></trkpt>
<trkpt lat="49.1409855" lon="2.6123379"><ele>68.62</ele><time>2026-4-30T6:16:37Z</time></trkpt>
<trkpt lat="49.1410537" lon="2.6120430"><ele>67.84</ele><time>2026-4-30T6:16:40Z</time></trkpt>
<trkpt lat="49.1411386" lon="2.6117660"><ele>68.78</ele><time>2026-4-30T6:16:43Z</time></trkpt>
<trkpt lat="49.1413248" lon="2.6117559"><ele>70.79</ele><time>2026-4-30T6:16:46Z</time></trkpt>
<trkpt lat="49.1414980" lon="2.6119137"><ele>73.68</ele><time>2026-4-30T6:16:49Z</time></trkpt>
<trkpt lat="49.1416562" lon="2.6120526"><ele>71.54</ele><time>2026-4-30T6:16:52Z</time></trkpt>
<trkpt lat="49.1418319" lon="2.6122012"><ele>75.06</ele><time>2026-4-30T6:16:55Z</time></trkpt>
<trkpt lat="49.1419991" lon="2.6123426"><ele>77.24</ele><time>2026-4-30T6:16:58Z</time></trkpt>
<trkpt lat="49.1421502" lon="2.6125004"><ele>76.88</ele><time>2026-4-30T6:17:1Z</time></trkpt>
<trkpt lat="49.1423233" lon="2.6126851"><ele>76.70</ele><time>2026-4-30T6:17:4Z</time></trkpt>
<trkpt lat="49.1424193" lon="2.6129455"><ele>76.84</ele><time>2026-4-30T6:17:7Z</time></trkpt>
<trkpt lat="49.1425273" lon="2.6131907"><ele>78.02</ele><time>2026-4-30T6:17:10Z</time></trkpt>
<trkpt lat="49.1426628" lon="2.6134147"><ele>81.85</ele><time>2026-4-30T6:17:13Z</time></trkpt>
<trkpt lat="49.1428371" lon="2.6135323"><ele>81.27</ele><time>2026-4-30T6:17:16Z</time></trkpt>
<trkpt lat="49.1429623" lon="2.6137585"><ele>82.35</ele><time>2026-4-30T6:17:19Z</time></trkpt>
<trkpt lat="49.1430968" lon="2.6139755"><ele>85.36</ele><time>2026-4-30T6:17:22Z</time></trkpt>
<trkpt lat="49.1432872" lon="2.6140206"><ele>88.58</ele><time>2026-4-30T6:17:25Z</time></trkpt>
<trkpt lat="49.1434673" lon="2.6139647"><ele>89.47</ele><time>2026-4-30T6:17:28Z</time></trkpt>
<trkpt lat="49.1435171" lon="2.6142497"><ele>90.33</ele><time>2026-4-30T6:17:31Z</time></trkpt>
<trkpt lat="49.1435656" lon="2.6145339"><ele>92.69</ele><time>2026-4-30T6:17:34Z</time></trkpt>
<trkpt lat="49.1437220" lon="2.6146727"><ele>94.47</ele><time>2026-4-30T6:17:37Z</time></trkpt>
<trkpt lat="49.1438929" lon="2.6147612"><ele>94.05</ele><time>2026-4-30T6:17:40Z</time></trkpt>
<trkpt lat="49.1440670" lon="2.6148314"><ele>97.44</ele><time>2026-4-30T6:17:43Z</time></trkpt>
<trkpt lat="49.1442446" lon="2.6148861"><ele>99.71</ele><time>2026-4-30T6:17:46Z</time></trkpt>
<trkpt lat="49.1444468" lon="2.6147463"><ele>98.12</ele><time>2026-4-30T6:17:49Z</time></trkpt>
<trkpt lat="49.1446051" lon="2.6145457"><ele>96.40</ele><time>2026-4-30T6:17:52Z</time></trkpt>
<trkpt lat="49.1447863" lon="2.6144127"><ele>93.10</ele><time>2026-4-30T6:17:55Z</time></trkpt>
<trkpt lat="49.1449847" lon="2.6143259"><ele>92.41</ele><time>2026-4-30T6:17:58Z</time></trkpt>
<trkpt lat="49.1451815" lon="2.6141964"><ele>89.59</ele><time>2026-4-30T6:18:1Z</time></trkpt>
<trkpt lat="49.1453734" lon="2.6140814"><ele>87.49</ele><time>2026-4-30T6:18:4Z</time></trkpt>
<trkpt lat="49.1455747" lon="2.6138990"><ele>85.36</ele><time>2026-4-30T6:18:7Z</time></trkpt>
<trkpt lat="49.1457994" lon="2.6137250"><ele>83.26</ele><time>2026-4-30T6:18:10Z</time></trkpt>
<trkpt lat="49.1459924" lon="2.6136031"><ele>82.16</ele><time>2026-4-30T6:18:13Z</time></trkpt>
<trkpt lat="49.1461909" lon="2.6134855"><ele>81.89</ele><time>2026-4-30T6:18:16Z</time></trkpt>
<trkpt lat="49.1463722" lon="2.6133839"><ele>80.22</ele><time>2026-4-30T6:18:19Z</time></trkpt>
<trkpt lat="49.1465664" lon="2.6132493"><ele>79.74</ele><time>2026-4-30T6:18:22Z</time></trkpt>
<trkpt lat="49.1467390" lon="2.6131231"><ele>81.63</ele><time>2026-4-30T6:18:25Z</time></trkpt>
<trkpt lat="49.1469143" lon="2.6130073"><ele>86.58</ele><time>2026-4-30T6:18:28Z</time></trkpt>
<trkpt lat="49.1471038" lon="2.6129805"><ele>91.56</ele><time>2026-4-30T6:18:31Z</time></trkpt>
<trkpt lat="49.1473016" lon="2.6129794"><ele>92.26</ele><time>2026-4-30T6:18:34Z</time></trkpt>
<trkpt lat="49.1474940" lon="2.6129174"><ele>93.20</ele><time>2026-4-30T6:18:37Z</time></trkpt>
<trkpt lat="49.1476525" lon="2.6127742"><ele>91.05</ele><time>2026-4-30T6:18:40Z</time></trkpt>
<trkpt lat="49.1477704" lon="2.6125395"><ele>87.95</ele><time>2026-4-30T6:18:43Z</time></trkpt>
<trkpt lat="49.1478999" lon="2.6123138"><ele>82.90</ele><time>2026-4-30T6:18:46Z</time></trkpt>
<trkpt lat="49.1480765" lon="2.6121614"><ele>80.77</ele><time>2026-4-30T6:18:49Z</time></trkpt>
<trkpt lat="49.1482580" lon="2.6120680"><ele>82.81</ele><time>2026-4-30T6:18:52Z</time></trkpt>
<trkpt lat="49.1483116" lon="2.6117485"><ele>79.35</ele><time>2026-4-30T6:18:55Z</time></trkpt>
<trkpt lat="49.1484195" lon="2.6114424"><ele>79.97</ele><time>2026-4-30T6:18:58Z</time></trkpt>
<trkpt lat="49.1485052" lon="2.6111536"><ele>81.68</ele><time>2026-4-30T6:19:1Z</time></trkpt>
<trkpt lat="49.1485826" lon="2.6108755"><ele>80.80</ele><time>2026-4-30T6:19:4Z</time></trkpt>
<trkpt lat="49.1486600" lon="2.6106225"><ele>79.37</ele><time>2026-4-30T6:19:7Z</time></trkpt>
<trkpt lat="49.1487293" lon="2.6103476"><ele>81.25</ele><time>2026-4-30T6:19:10Z</time></trkpt>
<trkpt lat="49.1488164" lon="2.6100498"><ele>81.66</ele><time>2026-4-30T6:19:13Z</time></trkpt>
<trkpt lat="49.1488993" lon="2.6097748"><ele>80.55</ele><time>2026-4-30T6:19:16Z</time></trkpt>
<trkpt lat="49.1489870" lon="2.6095003"><ele>82.58</ele><time>2026-4-30T6:19:19Z</time></trkpt>
<trkpt lat="49.1491655" lon="2.6094169"><ele>86.30</ele><time>2026-4-30T6:19:22Z</time></trkpt>
<trkpt lat="49.1493457" lon="2.6094651"><ele>85.78</ele><time>2026-4-30T6:19:25Z</time></trkpt>
<trkpt lat="49.1495171" lon="2.6092953"><ele>86.79</ele><time>2026-4-30T6:19:28Z</time></trkpt>
<trkpt lat="49.1495864" lon="2.6090399"><ele>90.59</ele><time>2026-4-30T6:19:31Z</time></trkpt>
<trkpt lat="49.1495794" lon="2.6087606"><ele>94.08</ele><time>2026-4-30T6:19:34Z</time></trkpt>
<trkpt lat="49.1495018" lon="2.6085011"><ele>96.68</ele><time>2026-4-30T6:19:37Z</time></trkpt>
<trkpt lat="49.1495973" lon="2.6082569"><ele>99.00</ele><time>2026-4-30T6:19:40Z</time></trkpt>
<trkpt lat="49.1496031" lon="2.6079589"><ele>96.38</ele><time>2026-4-30T6:19:43Z</time></trkpt>
<trkpt lat="49.1495064" lon="2.6077141"><ele>94.34</ele><time>2026-4-30T6:19:46Z</time></trkpt>
<trkpt lat="49.1495604" lon="2.6074445"><ele>92.16</ele><time>2026-4-30T6:19:49Z</time></trkpt>
<trkpt lat="49.1496451" lon="2.6071841"><ele>84.90</ele><time>2026-4-30T6:19:52Z</time></trkpt>
<trkpt lat="49.1497405" lon="2.6069431"><ele>81.62</ele><time>2026-4-30T6:19:55Z</time></trkpt>
<trkpt lat="49.1499246" lon="2.6070851"><ele>79.55</ele><time>2026-4-30T6:19:58Z</time></trkpt>
<trkpt lat="49.1501036" lon="2.6071694"><ele>77.89</ele><time>2026-4-30T6:20:1Z</time></trkpt>
<trkpt lat="49.1503257" lon="2.6072691"><ele>80.51</ele><time>2026-4-30T6:20:4Z</time></trkpt>
<trkpt lat="49.1505113" lon="2.6073568"><ele>80.99</ele><time>2026-4-30T6:20:7Z</time></trkpt>
<trkpt lat="49.1507107" lon="2.6074338"><ele>80.56</ele><time>2026-4-30T6:20:10Z</time></trkpt>
<trkpt lat="49.1509029" lon="2.6075168"><ele>77.92</ele><time>2026-4-30T6:20:13Z</time></trkpt>
<trkpt lat="49.1510868" lon="2.6075915"><ele>76.62</ele><time>2026-4-30T6:20:16Z</time></trkpt>
<trkpt lat="49.1512784" lon="2.6076848"><ele>74.65</ele><time>2026-4-30T6:20:19Z</time></trkpt>
<trkpt lat="49.1514747" lon="2.6077510"><ele>72.65</ele><time>2026-4-30T6:20:22Z</time></trkpt>
<trkpt lat="49.1516508" lon="2.6078293"><ele>72.94</ele><time>2026-4-30T6:20:25Z</time></trkpt>
<trkpt lat="49.1518614" lon="2.6078937"><ele>72.36</ele><time>2026-4-30T6:20:28Z</time></trkpt>
<trkpt lat="49.1521002" lon="2.6080111"><ele>71.25</ele><time>2026-4-30T6:20:31Z</time></trkpt>
<trkpt lat="49.1522806" lon="2.6080868"><ele>72.02</ele><time>2026-4-30T6:20:34Z</time></trkpt>
<trkpt lat="49.1524614" lon="2.6081987"><ele>72.67</ele><time>2026-4-30T6:20:37Z</time></trkpt>
<trkpt lat="49.1526509" lon="2.6082816"><ele>71.00</ele><time>2026-4-30T6:20:40Z</time></trkpt>
<trkpt lat="49.1528781" lon="2.6084013"><ele>71.53</ele><time>2026-4-30T6:20:43Z</time></trkpt>
<trkpt lat="49.1530946" lon="2.6084764"><ele>72.33</ele><time>2026-4-30T6:20:46Z</time></trkpt>
<trkpt lat="49.1532971" lon="2.6085490"><ele>72.12</ele><time>2026-4-30T6:20:49Z</time></trkpt>
<trkpt lat="49.1534977" lon="2.6086466"><ele>71.19</ele><time>2026-4-30T6:20:52Z</time></trkpt>
<trkpt lat="49.1536910" lon="2.6087252"><ele>69.44</ele><time>2026-4-30T6:20:55Z</time></trkpt>
<trkpt lat="49.1539100" lon="2.6087987"><ele>67.55</ele><time>2026-4-30T6:20:58Z</time></trkpt>
<trkpt lat="49.1541006" lon="2.6088828"><ele>68.89</ele><time>2026-4-30T6:21:1Z</time></trkpt>
<trkpt lat="49.1543023" lon="2.6089666"><ele>71.67</ele><time>2026-4-30T6:21:4Z</time></trkpt>
<trkpt lat="49.1544948" lon="2.6090560"><ele>74.57</ele><time>2026-4-30T6:21:7Z</time></trkpt>
<trkpt lat="49.1546758" lon="2.6091209"><ele>75.49</ele><time>2026-4-30T6:21:10Z</time></trkpt>
<trkpt lat="49.1548801" lon="2.6092009"><ele>75.67</ele><time>2026-4-30T6:21:13Z</time></trkpt>
<trkpt lat="49.1550761" lon="2.6092848"><ele>75.28</ele><time>2026-4-30T6:21:16Z</time></trkpt>
<trkpt lat="49.1552864" lon="2.6093758"><ele>71.72</ele><time>2026-4-30T6:21:19Z</time></trkpt>
<trkpt lat="49.1554837" lon="2.6094436"><ele>71.82</ele><time>2026-4-30T6:21:22Z</time></trkpt>
<trkpt lat="49.1556660" lon="2.6095270"><ele>73.94</ele><time>2026-4-30T6:21:25Z</time></trkpt>
<trkpt lat="49.1558586" lon="2.6096036"><ele>73.99</ele><time>2026-4-30T6:21:28Z</time></trkpt>
<trkpt lat="49.1560373" lon="2.6097316"><ele>73.05</ele><time>2026-4-30T6:21:31Z</time></trkpt>
<trkpt lat="49.1562246" lon="2.6097590"><ele>73.56</ele><time>2026-4-30T6:21:34Z</time></trkpt>
<trkpt lat="49.1564230" lon="2.6098152"><ele>75.07</ele><time>2026-4-30T6:21:37Z</time></trkpt>
<trkpt lat="49.1565993" lon="2.6098916"><ele>75.28</ele><time>2026-4-30T6:21:40Z</time></trkpt>
<trkpt lat="49.1567813" lon="2.6099756"><ele>74.19</ele><time>2026-4-30T6:21:43Z</time></trkpt>
<trkpt lat="49.1569840" lon="2.6100656"><ele>75.82</ele><time>2026-4-30T6:21:46Z</time></trkpt>
<trkpt lat="49.1571557" lon="2.6101585"><ele>80.23</ele><time>2026-4-30T6:21:49Z</time></trkpt>
<trkpt lat="49.1573619" lon="2.6102347"><ele>76.29</ele><time>2026-4-30T6:21:52Z</time></trkpt>
<trkpt lat="49.1575679" lon="2.6103388"><ele>76.73</ele><time>2026-4-30T6:21:55Z</time></trkpt>
<trkpt lat="49.1577764" lon="2.6104338"><ele>77.43</ele><time>2026-4-30T6:21:58Z</time></trkpt>
<trkpt lat="49.1579630" lon="2.6105262"><ele>77.15</ele><time>2026-4-30T6:22:1Z</time></trkpt>
<trkpt lat="49.1581365" lon="2.6105988"><ele>75.58</ele><time>2026-4-30T6:22:4Z</time></trkpt>
<trkpt lat="49.1583222" lon="2.6106144"><ele>75.33</ele><time>2026-4-30T6:22:7Z</time></trkpt>
<trkpt lat="49.1584919" lon="2.6107185"><ele>73.27</ele><time>2026-4-30T6:22:10Z</time></trkpt>
<trkpt lat="49.1586783" lon="2.6108252"><ele>73.01</ele><time>2026-4-30T6:22:13Z</time></trkpt>
<trkpt lat="49.1588618" lon="2.6109518"><ele>72.60</ele><time>2026-4-30T6:22:16Z</time></trkpt>
<trkpt lat="49.1590640" lon="2.6110468"><ele>70.82</ele><time>2026-4-30T6:22:19Z</time></trkpt>
<trkpt lat="49.1592492" lon="2.6111531"><ele>71.83</ele><time>2026-4-30T6:22:22Z</time></trkpt>
<trkpt lat="49.1594248" lon="2.6112660"><ele>72.94</ele><time>2026-4-30T6:22:25Z</time></trkpt>
<trkpt lat="49.1596091" lon="2.6113637"><ele>72.07</ele><time>2026-4-30T6:22:28Z</time></trkpt>
<trkpt lat="49.1597855" lon="2.6114513"><ele>71.97</ele><time>2026-4-30T6:22:31Z</time></trkpt>
<trkpt lat="49.1599666" lon="2.6115347"><ele>71.67</ele><time>2026-4-30T6:22:34Z</time></trkpt>
<trkpt lat="49.1601768" lon="2.6116025"><ele>72.30</ele><time>2026-4-30T6:22:37Z</time></trkpt>
<trkpt lat="49.1603724" lon="2.6116813"><ele>72.27</ele><time>2026-4-30T6:22:40Z</time></trkpt>
<trkpt lat="49.1605584" lon="2.6117489"><ele>71.00</ele><time>2026-4-30T6:22:43Z</time></trkpt>
<trkpt lat="49.1607133" lon="2.6119192"><ele>74.71</ele><time>2026-4-30T6:22:46Z</time></trkpt>
<trkpt lat="49.1609003" lon="2.6120617"><ele>73.33</ele><time>2026-4-30T6:22:49Z</time></trkpt>
<trkpt lat="49.1610648" lon="2.6122039"><ele>71.44</ele><time>2026-4-30T6:22:52Z</time></trkpt>
<trkpt lat="49.1612510" lon="2.6122851"><ele>71.56</ele><time>2026-4-30T6:22:55Z</time></trkpt>
<trkpt lat="49.1614368" lon="2.6123364"><ele>72.70</ele><time>2026-4-30T6:22:58Z</time></trkpt>
<trkpt lat="49.1616124" lon="2.6124075"><ele>72.94</ele><time>2026-4-30T6:23:1Z</time></trkpt>
<trkpt lat="49.1618066" lon="2.6124607"><ele>73.03</ele><time>2026-4-30T6:23:4Z</time></trkpt>
<trkpt lat="49.1620065" lon="2.6125562"><ele>75.86</ele><time>2026-4-30T6:23:7Z</time></trkpt>
<trkpt lat="49.1621867" lon="2.6126368"><ele>78.65</ele><time>2026-4-30T6:23:10Z</time></trkpt>
<trkpt lat="49.1623613" lon="2.6127207"><ele>80.94</ele><time>2026-4-30T6:23:13Z</time></trkpt>
<trkpt lat="49.1625535" lon="2.6127873"><ele>82.06</ele><time>2026-4-30T6:23:16Z</time></trkpt>
<trkpt lat="49.1627315" lon="2.6128790"><ele>78.58</ele><time>2026-4-30T6:23:19Z</time></trkpt>
<trkpt lat="49.1629353" lon="2.6129592"><ele>77.62</ele><time>2026-4-30T6:23:22Z</time></trkpt>
<trkpt lat="49.1631251" lon="2.6130641"><ele>80.29</ele><time>2026-4-30T6:23:25Z</time></trkpt>
<trkpt lat="49.1633004" lon="2.6131285"><ele>81.15</ele><time>2026-4-30T6:23:28Z</time></trkpt>
<trkpt lat="49.1634705" lon="2.6132365"><ele>79.98</ele><time>2026-4-30T6:23:31Z</time></trkpt>
<trkpt lat="49.1636555" lon="2.6133147"><ele>79.06</ele><time>2026-4-30T6:23:34Z</time></trkpt>
<trkpt lat="49.1638377" lon="2.6134386"><ele>80.04</ele><time>2026-4-30T6:23:37Z</time></trkpt>
<trkpt lat="49.1640222" lon="2.6135439"><ele>81.82</ele><time>2026-4-30T6:23:40Z</time></trkpt>
<trkpt lat="49.1642081" lon="2.6136115"><ele>85.01</ele><time>2026-4-30T6:23:43Z</time></trkpt>
<trkpt lat="49.1643959" lon="2.6137155"><ele>86.65</ele><time>2026-4-30T6:23:46Z</time></trkpt>
<trkpt lat="49.1645835" lon="2.6138152"><ele>90.10</ele><time>2026-4-30T6:23:49Z</time></trkpt>
<trkpt lat="49.1647883" lon="2.6138556"><ele>91.44</ele><time>2026-4-30T6:23:52Z</time></trkpt>
<trkpt lat="49.1649868" lon="2.6139206"><ele>98.24</ele><time>2026-4-30T6:23:55Z</time></trkpt>
<trkpt lat="49.1651747" lon="2.6139885"><ele>98.65</ele><time>2026-4-30T6:23:58Z</time></trkpt>
<trkpt lat="49.1653515" lon="2.6140694"><ele>98.13</ele><time>2026-4-30T6:24:1Z</time></trkpt>
<trkpt lat="49.1655530" lon="2.6141046"><ele>100.46</ele><time>2026-4-30T6:24:4Z</time></trkpt>
<trkpt lat="49.1657522" lon="2.6141414"><ele>103.07</ele><time>2026-4-30T6:24:7Z</time></trkpt>
<trkpt lat="49.1659292" lon="2.6142336"><ele>102.70</ele><time>2026-4-30T6:24:10Z</time></trkpt>
<trkpt lat="49.1661251" lon="2.6143115"><ele>104.23</ele><time>2026-4-30T6:24:13Z</time></trkpt>
<trkpt lat="49.1663264" lon="2.6143960"><ele>104.43</ele><time>2026-4-30T6:24:16Z</time></trkpt>
<trkpt lat="49.1665087" lon="2.6144546"><ele>101.78</ele><time>2026-4-30T6:24:19Z</time></trkpt>
<trkpt lat="49.1667187" lon="2.6144986"><ele>99.63</ele><time>2026-4-30T6:24:22Z</time></trkpt>
<trkpt lat="49.1669220" lon="2.6145417"><ele>101.38</ele><time>2026-4-30T6:24:25Z</time></trkpt>
<trkpt lat="49.1671055" lon="2.6146177"><ele>101.68</ele><time>2026-4-30T6:24:28Z</time></trkpt>
<trkpt lat="49.1673142" lon="2.6146949"><ele>100.86</ele><time>2026-4-30T6:24:31Z</time></trkpt>
<trkpt lat="49.1675205" lon="2.6147366"><ele>98.85</ele><time>2026-4-30T6:24:34Z</time></trkpt>
<trkpt lat="49.1676936" lon="2.6148293"><ele>99.93</ele><time>2026-4-30T6:24:37Z</time></trkpt>
<trkpt lat="49.1678916" lon="2.6149098"><ele>97.98</ele><time>2026-4-30T6:24:40Z</time></trkpt>
<trkpt lat="49.1680729" lon="2.6149578"><ele>96.54</ele><time>2026-4-30T6:24:43Z</time></trkpt>
<trkpt lat="49.1682643" lon="2.6150271"><ele>97.32</ele><time>2026-4-30T6:24:46Z</time></trkpt>
<trkpt lat="49.1684565" lon="2.6151101"><ele>102.11</ele><time>2026-4-30T6:24:49Z</time></trkpt>
<trkpt lat="49.1686474" lon="2.6151690"><ele>99.95</ele><time>2026-4-30T6:24:52Z</time></trkpt>
<trkpt lat="49.1688236" lon="2.6152327"><ele>100.02</ele><time>2026-4-30T6:24:55Z</time></trkpt>
<trkpt lat="49.1690416" lon="2.6153076"><ele>102.46</ele><time>2026-4-30T6:24:58Z</time></trkpt>
<trkpt lat="49.1692426" lon="2.6153640"><ele>101.61</ele><time>2026-4-30T6:25:1Z</time></trkpt>
<trkpt lat="49.1694333" lon="2.6154156"><ele>100.05</ele><time>2026-4-30T6:25:4Z</time></trkpt>
<trkpt lat="49.1696311" lon="2.6155053"><ele>101.20</ele><time>2026-4-30T6:25:7Z</time></trkpt>
<trkpt lat="49.1698372" lon="2.6155616"><ele>101.00</ele><time>2026-4-30T6:25:10Z</time></trkpt>
<trkpt lat="49.1700290" lon="2.6156445"><ele>103.17</ele><time>2026-4-30T6:25:13Z</time></trkpt>
<trkpt lat="49.1702156" lon="2.6157080"><ele>105.07</ele><time>2026-4-30T6:25:16Z</time></trkpt>
<trkpt lat="49.1704112" lon="2.6157726"><ele>105.32</ele><time>2026-4-30T6:25:19Z</time></trkpt>
<trkpt lat="49.1705963" lon="2.6158250"><ele>105.90</ele><time>2026-4-30T6:25:22Z</time></trkpt>
<trkpt lat="49.1708008" lon="2.6158908"><ele>106.03</ele><time>2026-4-30T6:25:25Z</time></trkpt>
<trkpt lat="49.1709955" lon="2.6159607"><ele>105.69</ele><time>2026-4-30T6:25:28Z</time></trkpt>
<trkpt lat="49.1711851" lon="2.6160356"><ele>104.71</ele><time>2026-4-30T6:25:31Z</time></trkpt>
<trkpt lat="49.1713677" lon="2.6160813"><ele>108.26</ele><time>2026-4-30T6:25:34Z</time></trkpt>
<trkpt lat="49.1715697" lon="2.6161627"><ele>109.19</ele><time>2026-4-30T6:25:37Z</time></trkpt>
<trkpt lat="49.1717884" lon="2.6162663"><ele>106.26</ele><time>2026-4-30T6:25:40Z</time></trkpt>
<trkpt lat="49.1719222" lon="2.6164723"><ele>102.86</ele><time>2026-4-30T6:25:43Z</time></trkpt>
<trkpt lat="49.1719831" lon="2.6167588"><ele>99.07</ele><time>2026-4-30T6:25:46Z</time></trkpt>
<trkpt lat="49.1718884" lon="2.6170756"><ele>98.08</ele><time>2026-4-30T6:25:49Z</time></trkpt>
<trkpt lat="49.1717692" lon="2.6173869"><ele>97.08</ele><time>2026-4-30T6:25:52Z</time></trkpt>
<trkpt lat="49.1716452" lon="2.6176578"><ele>97.77</ele><time>2026-4-30T6:25:55Z</time></trkpt>
<trkpt lat="49.1715140" lon="2.6178726"><ele>94.66</ele><time>2026-4-30T6:25:58Z</time></trkpt>
<trkpt lat="49.1714992" lon="2.6181595"><ele>90.28</ele><time>2026-4-30T6:26:1Z</time></trkpt>
<trkpt lat="49.1714428" lon="2.6184879"><ele>86.42</ele><time>2026-4-30T6:26:4Z</time></trkpt>
<trkpt lat="49.1714350" lon="2.6188115"><ele>85.69</ele><time>2026-4-30T6:26:7Z</time></trkpt>
<trkpt lat="49.1714524" lon="2.6191443"><ele>84.27</ele><time>2026-4-30T6:26:10Z</time></trkpt>
<trkpt lat="49.1714167" lon="2.6194308"><ele>82.43</ele><time>2026-4-30T6:26:13Z</time></trkpt>
<trkpt lat="49.1714044" lon="2.6197458"><ele>85.74</ele><time>2026-4-30T6:26:16Z</time></trkpt>
<trkpt lat="49.1713396" lon="2.6200308"><ele>82.50</ele><time>2026-4-30T6:26:19Z</time></trkpt>
<trkpt lat="49.1713633" lon="2.6203617"><ele>79.47</ele><time>2026-4-30T6:26:22Z</time></trkpt>
<trkpt lat="49.1713325" lon="2.6206334"><ele>78.02</ele><time>2026-4-30T6:26:25Z</time></trkpt>
<trkpt lat="49.1713276" lon="2.6209543"><ele>79.29</ele><time>2026-4-30T6:26:28Z</time></trkpt>
<trkpt lat="49.1713296" lon="2.6212774"><ele>81.07</ele><time>2026-4-30T6:26:31Z</time></trkpt>
<trkpt lat="49.1713287" lon="2.6215627"><ele>84.59</ele><time>2026-4-30T6:26:34Z</time></trkpt>
<trkpt lat="49.1713350" lon="2.6218473"><ele>84.08</ele><time>2026-4-30T6:26:37Z</time></trkpt>
<trkpt lat="49.1711055" lon="2.6221071"><ele>87.15</ele><time>2026-4-30T6:26:40Z</time></trkpt>
<trkpt lat="49.1709251" lon="2.6223845"><ele>86.38</ele><time>2026-4-30T6:26:43Z</time></trkpt>
<trkpt lat="49.1708344" lon="2.6226367"><ele>84.00</ele><time>2026-4-30T6:26:46Z</time></trkpt>
<trkpt lat="49.1707782" lon="2.6229019"><ele>84.29</ele><time>2026-4-30T6:26:49Z</time></trkpt>
<trkpt lat="49.1706936" lon="2.6231745"><ele>91.14</ele><time>2026-4-30T6:26:52Z</time></trkpt>
<trkpt lat="49.1706487" lon="2.6234533"><ele>94.29</ele><time>2026-4-30T6:26:55Z</time></trkpt>
<trkpt lat="49.1705910" lon="2.6237719"><ele>97.46</ele><time>2026-4-30T6:26:58Z</time></trkpt>
<trkpt lat="49.1705202" lon="2.6240542"><ele>96.65</ele><time>2026-4-30T6:27:1Z</time></trkpt>
<trkpt lat="49.1704229" lon="2.6242874"><ele>98.13</ele><time>2026-4-30T6:27:4Z</time></trkpt>
<trkpt lat="49.1703060" lon="2.6245122"><ele>101.67</ele><time>2026-4-30T6:27:7Z</time></trkpt>
<trkpt lat="49.1701236" lon="2.6245893"><ele>104.31</ele><time>2026-4-30T6:27:10Z</time></trkpt>
<trkpt lat="49.1699177" lon="2.6245998"><ele>106.81</ele><time>2026-4-30T6:27:13Z</time></trkpt>
<trkpt lat="49.1697034" lon="2.6246593"><ele>106.34</ele><time>2026-4-30T6:27:16Z</time></trkpt>
<trkpt lat="49.1694628" lon="2.6247296"><ele>106.87</ele><time>2026-4-30T6:27:19Z</time></trkpt>
<trkpt lat="49.1692847" lon="2.6248454"><ele>109.67</ele><time>2026-4-30T6:27:22Z</time></trkpt>
<trkpt lat="49.1690970" lon="2.6250425"><ele>109.87</ele><time>2026-4-30T6:27:25Z</time></trkpt>
<trkpt lat="49.1689208" lon="2.6251908"><ele>105.67</ele><time>2026-4-30T6:27:28Z</time></trkpt>
<trkpt lat="49.1687378" lon="2.6253950"><ele>105.79</ele><time>2026-4-30T6:27:31Z</time></trkpt>
<trkpt lat="49.1686607" lon="2.6256631"><ele>103.50</ele><time>2026-4-30T6:27:34Z</time></trkpt>
<trkpt lat="49.1685936" lon="2.6259488"><ele>99.39</ele><time>2026-4-30T6:27:37Z</time></trkpt>
<trkpt lat="49.1685381" lon="2.6262612"><ele>95.96</ele><time>2026-4-30T6:27:40Z</time></trkpt>
<trkpt lat="49.1684576" lon="2.6265484"><ele>95.94</ele><time>2026-4-30T6:27:43Z</time></trkpt>
<trkpt lat="49.1683041" lon="2.6268051"><ele>97.20</ele><time>2026-4-30T6:27:46Z</time></trkpt>
<trkpt lat="49.1681573" lon="2.6269690"><ele>97.61</ele><time>2026-4-30T6:27:49Z</time></trkpt>
<trkpt lat="49.1679922" lon="2.6271417"><ele>96.10</ele><time>2026-4-30T6:27:52Z</time></trkpt>
<trkpt lat="49.1678630" lon="2.6273679"><ele>95.82</ele><time>2026-4-30T6:27:55Z</time></trkpt>
<trkpt lat="49.1677262" lon="2.6275546"><ele>97.74</ele><time>2026-4-30T6:27:58Z</time></trkpt>
<trkpt lat="49.1675992" lon="2.6277827"><ele>98.33</ele><time>2026-4-30T6:28:1Z</time></trkpt>
<trkpt lat="49.1674404" lon="2.6280160"><ele>99.88</ele><time>2026-4-30T6:28:4Z</time></trkpt>
<trkpt lat="49.1672993" lon="2.6282592"><ele>100.91</ele><time>2026-4-30T6:28:7Z</time></trkpt>
<trkpt lat="49.1672772" lon="2.6285842"><ele>103.80</ele><time>2026-4-30T6:28:10Z</time></trkpt>
<trkpt lat="49.1671840" lon="2.6288533"><ele>100.93</ele><time>2026-4-30T6:28:13Z</time></trkpt>
<trkpt lat="49.1670532" lon="2.6290557"><ele>102.00</ele><time>2026-4-30T6:28:16Z</time></trkpt>
<trkpt lat="49.1669611" lon="2.6293052"><ele>104.25</ele><time>2026-4-30T6:28:19Z</time></trkpt>
<trkpt lat="49.1667917" lon="2.6294791"><ele>103.24</ele><time>2026-4-30T6:28:22Z</time></trkpt>
<trkpt lat="49.1666634" lon="2.6297363"><ele>112.07</ele><time>2026-4-30T6:28:25Z</time></trkpt>
<trkpt lat="49.1665091" lon="2.6299417"><ele>111.32</ele><time>2026-4-30T6:28:28Z</time></trkpt>
<trkpt lat="49.1663143" lon="2.6300770"><ele>112.70</ele><time>2026-4-30T6:28:31Z</time></trkpt>
<trkpt lat="49.1661396" lon="2.6301515"><ele>114.10</ele><time>2026-4-30T6:28:34Z</time></trkpt>
<trkpt lat="49.1659440" lon="2.6302009"><ele>111.10</ele><time>2026-4-30T6:28:37Z</time></trkpt>
<trkpt lat="49.1657395" lon="2.6302693"><ele>110.68</ele><time>2026-4-30T6:28:40Z</time></trkpt>
<trkpt lat="49.1655375" lon="2.6303802"><ele>109.95</ele><time>2026-4-30T6:28:43Z</time></trkpt>
<trkpt lat="49.1653640" lon="2.6304923"><ele>110.73</ele><time>2026-4-30T6:28:46Z</time></trkpt>
<trkpt lat="49.1651937" lon="2.6306073"><ele>110.51</ele><time>2026-4-30T6:28:49Z</time></trkpt>
<trkpt lat="49.1650041" lon="2.6307399"><ele>110.86</ele><time>2026-4-30T6:28:52Z</time></trkpt>
<trkpt lat="49.1647932" lon="2.6309368"><ele>108.95</ele><time>2026-4-30T6:28:55Z</time></trkpt>
<trkpt lat="49.1646398" lon="2.6311035"><ele>109.13</ele><time>2026-4-30T6:28:58Z</time></trkpt>
<trkpt lat="49.1644728" lon="2.6313279"><ele>105.86</ele><time>2026-4-30T6:29:1Z</time></trkpt>
<trkpt lat="49.1643340" lon="2.6315123"><ele>104.54</ele><time>2026-4-30T6:29:4Z</time></trkpt>
<trkpt lat="49.1642138" lon="2.6317822"><ele>104.77</ele><time>2026-4-30T6:29:7Z</time></trkpt>
<trkpt lat="49.1640909" lon="2.6319905"><ele>103.86</ele><time>2026-4-30T6:29:10Z</time></trkpt>
<trkpt lat="49.1639585" lon="2.6321962"><ele>103.64</ele><time>2026-4-30T6:29:13Z</time></trkpt>
<trkpt lat="49.1637902" lon="2.6324213"><ele>104.16</ele><time>2026-4-30T6:29:16Z</time></trkpt>
<trkpt lat="49.1636596" lon="2.6326158"><ele>104.16</ele><time>2026-4-30T6:29:19Z</time></trkpt>
<trkpt lat="49.1636993" lon="2.6329007"><ele>106.20</ele><time>2026-4-30T6:29:22Z</time></trkpt>
<trkpt lat="49.1637355" lon="2.6332116"><ele>106.36</ele><time>2026-4-30T6:29:25Z</time></trkpt>
<trkpt lat="49.1638001" lon="2.6335038"><ele>104.70</ele><time>2026-4-30T6:29:28Z</time></trkpt>
<trkpt lat="49.1638565" lon="2.6337769"><ele>105.63</ele><time>2026-4-30T6:29:31Z</time></trkpt>
<trkpt lat="49.1639195" lon="2.6341128"><ele>106.13</ele><time>2026-4-30T6:29:34Z</time></trkpt>
<trkpt lat="49.1639510" lon="2.6343954"><ele>106.21</ele><time>2026-4-30T6:29:37Z</time></trkpt>
<trkpt lat="49.1640130" lon="2.6346593"><ele>109.80</ele><time>2026-4-30T6:29:40Z</time></trkpt>
<trkpt lat="49.1640540" lon="2.6349297"><ele>109.39</ele><time>2026-4-30T6:29:43Z</time></trkpt>
<trkpt lat="49.1640906" lon="2.6352226"><ele>109.81</ele><time>2026-4-30T6:29:46Z</time></trkpt>
<trkpt lat="49.1641277" lon="2.6355108"><ele>112.07</ele><time>2026-4-30T6:29:49Z</time></trkpt>
<trkpt lat="49.1641652" lon="2.6357923"><ele>113.01</ele><time>2026-4-30T6:29:52Z</time></trkpt>
<trkpt lat="49.1642132" lon="2.6360664"><ele>112.05</ele><time>2026-4-30T6:29:55Z</time></trkpt>
<trkpt lat="49.1642684" lon="2.6363944"><ele>110.29</ele><time>2026-4-30T6:29:58Z</time></trkpt>
<trkpt lat="49.1643431" lon="2.6367058"><ele>108.95</ele><time>2026-4-30T6:30:1Z</time></trkpt>
<trkpt lat="49.1644214" lon="2.6369994"><ele>107.93</ele><time>2026-4-30T6:30:4Z</time></trkpt>
<trkpt lat="49.1644624" lon="2.6372728"><ele>108.42</ele><time>2026-4-30T6:30:7Z</time></trkpt>
<trkpt lat="49.1645204" lon="2.6375800"><ele>109.31</ele><time>2026-4-30T6:30:10Z</time></trkpt>
<trkpt lat="49.1645828" lon="2.6378772"><ele>108.76</ele><time>2026-4-30T6:30:13Z</time></trkpt>
<trkpt lat="49.1646252" lon="2.6381487"><ele>108.81</ele><time>2026-4-30T6:30:16Z</time></trkpt>
<trkpt lat="49.1646807" lon="2.6384376"><ele>107.53</ele><time>2026-4-30T6:30:19Z</time></trkpt>
<trkpt lat="49.1647428" lon="2.6387265"><ele>108.19</ele><time>2026-4-30T6:30:22Z</time></trkpt>
<trkpt lat="49.1647996" lon="2.6390036"><ele>106.41</ele><time>2026-4-30T6:30:25Z</time></trkpt>
<trkpt lat="49.1648269" lon="2.6392961"><ele>107.71</ele><time>2026-4-30T6:30:28Z</time></trkpt>
<trkpt lat="49.1648880" lon="2.6395696"><ele>106.67</ele><time>2026-4-30T6:30:31Z</time></trkpt>
<trkpt lat="49.1649472" lon="2.6398704"><ele>106.42</ele><time>2026-4-30T6:30:34Z</time></trkpt>
<trkpt lat="49.1649832" lon="2.6401642"><ele>107.13</ele><time>2026-4-30T6:30:37Z</time></trkpt>
<trkpt lat="49.1650229" lon="2.6404549"><ele>106.38</ele><time>2026-4-30T6:30:40Z</time></trkpt>
<trkpt lat="49.1650633" lon="2.6407392"><ele>106.94</ele><time>2026-4-30T6:30:43Z</time></trkpt>
<trkpt lat="49.1651347" lon="2.6409989"><ele>108.10</ele><time>2026-4-30T6:30:46Z</time></trkpt>
<trkpt lat="49.1651844" lon="2.6412920"><ele>108.23</ele><time>2026-4-30T6:30:49Z</time></trkpt>
<trkpt lat="49.1652349" lon="2.6415926"><ele>109.28</ele><time>2026-4-30T6:30:52Z</time></trkpt>
<trkpt lat="49.1652869" lon="2.6418819"><ele>108.69</ele><time>2026-4-30T6:30:55Z</time></trkpt>
<trkpt lat="49.1653336" lon="2.6421541"><ele>109.06</ele><time>2026-4-30T6:30:58Z</time></trkpt>
<trkpt lat="49.1653554" lon="2.6424517"><ele>109.10</ele><time>2026-4-30T6:31:1Z</time></trkpt>
<trkpt lat="49.1652023" lon="2.6426377"><ele>107.86</ele><time>2026-4-30T6:31:4Z</time></trkpt>
<trkpt lat="49.1650147" lon="2.6427950"><ele>106.79</ele><time>2026-4-30T6:31:7Z</time></trkpt>
<trkpt lat="49.1648523" lon="2.6429419"><ele>106.58</ele><time>2026-4-30T6:31:10Z</time></trkpt>
<trkpt lat="49.1647058" lon="2.6431111"><ele>105.20</ele><time>2026-4-30T6:31:13Z</time></trkpt>
<trkpt lat="49.1645272" lon="2.6432731"><ele>104.01</ele><time>2026-4-30T6:31:16Z</time></trkpt>
<trkpt lat="49.1643443" lon="2.6434457"><ele>103.33</ele><time>2026-4-30T6:31:19Z</time></trkpt>
<trkpt lat="49.1641710" lon="2.6436017"><ele>103.86</ele><time>2026-4-30T6:31:22Z</time></trkpt>
<trkpt lat="49.1639433" lon="2.6438077"><ele>102.44</ele><time>2026-4-30T6:31:25Z</time></trkpt>
<trkpt lat="49.1637900" lon="2.6439548"><ele>103.04</ele><time>2026-4-30T6:31:28Z</time></trkpt>
<trkpt lat="49.1636119" lon="2.6441381"><ele>101.62</ele><time>2026-4-30T6:31:31Z</time></trkpt>
<trkpt lat="49.1634108" lon="2.6442793"><ele>100.32</ele><time>2026-4-30T6:31:34Z</time></trkpt>
<trkpt lat="49.1632526" lon="2.6444171"><ele>102.11</ele><time>2026-4-30T6:31:37Z</time></trkpt>
<trkpt lat="49.1630106" lon="2.6446165"><ele>103.24</ele><time>2026-4-30T6:31:40Z</time></trkpt>
<trkpt lat="49.1628475" lon="2.6447930"><ele>104.65</ele><time>2026-4-30T6:31:43Z</time></trkpt>
<trkpt lat="49.1626627" lon="2.6449687"><ele>105.11</ele><time>2026-4-30T6:31:46Z</time></trkpt>
<trkpt lat="49.1624912" lon="2.6451184"><ele>106.46</ele><time>2026-4-30T6:31:49Z</time></trkpt>
<trkpt lat="49.1623189" lon="2.6452958"><ele>108.92</ele><time>2026-4-30T6:31:52Z</time></trkpt>
<trkpt lat="49.1621467" lon="2.6454825"><ele>110.84</ele><time>2026-4-30T6:31:55Z</time></trkpt>
<trkpt lat="49.1619794" lon="2.6456277"><ele>109.95</ele><time>2026-4-30T6:31:58Z</time></trkpt>
<trkpt lat="49.1617872" lon="2.6458101"><ele>111.07</ele><time>2026-4-30T6:32:1Z</time></trkpt>
<trkpt lat="49.1616003" lon="2.6459724"><ele>110.10</ele><time>2026-4-30T6:32:4Z</time></trkpt>
<trkpt lat="49.1614085" lon="2.6461290"><ele>110.48</ele><time>2026-4-30T6:32:7Z</time></trkpt>
<trkpt lat="49.1612304" lon="2.6462961"><ele>111.58</ele><time>2026-4-30T6:32:10Z</time></trkpt>
<trkpt lat="49.1610413" lon="2.6464660"><ele>109.74</ele><time>2026-4-30T6:32:13Z</time></trkpt>
<trkpt lat="49.1608566" lon="2.6466271"><ele>111.46</ele><time>2026-4-30T6:32:16Z</time></trkpt>
<trkpt lat="49.1606936" lon="2.6467917"><ele>109.38</ele><time>2026-4-30T6:32:19Z</time></trkpt>
<trkpt lat="49.1604978" lon="2.6469865"><ele>108.55</ele><time>2026-4-30T6:32:22Z</time></trkpt>
<trkpt lat="49.1603190" lon="2.6471422"><ele>109.34</ele><time>2026-4-30T6:32:25Z</time></trkpt>
<trkpt lat="49.1601226" lon="2.6473249"><ele>106.55</ele><time>2026-4-30T6:32:28Z</time></trkpt>
<trkpt lat="49.1599355" lon="2.6475217"><ele>104.43</ele><time>2026-4-30T6:32:31Z</time></trkpt>
<trkpt lat="49.1599137" lon="2.6478166"><ele>102.27</ele><time>2026-4-30T6:32:34Z</time></trkpt>
<trkpt lat="49.1599809" lon="2.6481050"><ele>104.58</ele><time>2026-4-30T6:32:37Z</time></trkpt>
<trkpt lat="49.1600204" lon="2.6484024"><ele>106.73</ele><time>2026-4-30T6:32:40Z</time></trkpt>
<trkpt lat="49.1600585" lon="2.6486897"><ele>107.47</ele><time>2026-4-30T6:32:43Z</time></trkpt>
<trkpt lat="49.1600809" lon="2.6489903"><ele>109.29</ele><time>2026-4-30T6:32:46Z</time></trkpt>
<trkpt lat="49.1601163" lon="2.6493050"><ele>108.53</ele><time>2026-4-30T6:32:49Z</time></trkpt>
<trkpt lat="49.1602405" lon="2.6495106"><ele>110.66</ele><time>2026-4-30T6:32:52Z</time></trkpt>
<trkpt lat="49.1604100" lon="2.6496038"><ele>107.11</ele><time>2026-4-30T6:32:55Z</time></trkpt>
<trkpt lat="49.1605895" lon="2.6496556"><ele>107.71</ele><time>2026-4-30T6:32:58Z</time></trkpt>
<trkpt lat="49.1607667" lon="2.6497158"><ele>108.46</ele><time>2026-4-30T6:33:1Z</time></trkpt>
<trkpt lat="49.1609509" lon="2.6497727"><ele>106.85</ele><time>2026-4-30T6:33:4Z</time></trkpt>
<trkpt lat="49.1611393" lon="2.6499357"><ele>104.23</ele><time>2026-4-30T6:33:7Z</time></trkpt>
<trkpt lat="49.1612944" lon="2.6500800"><ele>104.77</ele><time>2026-4-30T6:33:10Z</time></trkpt>
<trkpt lat="49.1614603" lon="2.6502317"><ele>104.70</ele><time>2026-4-30T6:33:13Z</time></trkpt>
<trkpt lat="49.1616345" lon="2.6504059"><ele>104.32</ele><time>2026-4-30T6:33:16Z</time></trkpt>
<trkpt lat="49.1618163" lon="2.6505765"><ele>105.45</ele><time>2026-4-30T6:33:19Z</time></trkpt>
<trkpt lat="49.1619957" lon="2.6507218"><ele>106.52</ele><time>2026-4-30T6:33:22Z</time></trkpt>
<trkpt lat="49.1621627" lon="2.6508687"><ele>108.33</ele><time>2026-4-30T6:33:25Z</time></trkpt>
<trkpt lat="49.1623235" lon="2.6509976"><ele>108.16</ele><time>2026-4-30T6:33:28Z</time></trkpt>
<trkpt lat="49.1624725" lon="2.6511552"><ele>109.08</ele><time>2026-4-30T6:33:31Z</time></trkpt>
<trkpt lat="49.1626781" lon="2.6513475"><ele>111.83</ele><time>2026-4-30T6:33:34Z</time></trkpt>
<trkpt lat="49.1628524" lon="2.6514749"><ele>111.23</ele><time>2026-4-30T6:33:37Z</time></trkpt>
<trkpt lat="49.1630264" lon="2.6516186"><ele>110.19</ele><time>2026-4-30T6:33:40Z</time></trkpt>
<trkpt lat="49.1632194" lon="2.6517475"><ele>109.19</ele><time>2026-4-30T6:33:43Z</time></trkpt>
<trkpt lat="49.1633711" lon="2.6519015"><ele>106.87</ele><time>2026-4-30T6:33:46Z</time></trkpt>
<trkpt lat="49.1635499" lon="2.6520478"><ele>104.81</ele><time>2026-4-30T6:33:49Z</time></trkpt>
<trkpt lat="49.1637196" lon="2.6522173"><ele>103.94</ele><time>2026-4-30T6:33:52Z</time></trkpt>
<trkpt lat="49.1638364" lon="2.6524600"><ele>100.51</ele><time>2026-4-30T6:33:55Z</time></trkpt>
<trkpt lat="49.1639736" lon="2.6527225"><ele>99.31</ele><time>2026-4-30T6:33:58Z</time></trkpt>
<trkpt lat="49.1641275" lon="2.6530320"><ele>98.32</ele><time>2026-4-30T6:34:1Z</time></trkpt>
<trkpt lat="49.1643078" lon="2.6532055"><ele>91.70</ele><time>2026-4-30T6:34:4Z</time></trkpt>
<trkpt lat="49.1644913" lon="2.6533551"><ele>89.75</ele><time>2026-4-30T6:34:7Z</time></trkpt>
<trkpt lat="49.1646897" lon="2.6534605"><ele>90.62</ele><time>2026-4-30T6:34:10Z</time></trkpt>
<trkpt lat="49.1649050" lon="2.6535484"><ele>90.14</ele><time>2026-4-30T6:34:13Z</time></trkpt>
<trkpt lat="49.1651069" lon="2.6536390"><ele>90.75</ele><time>2026-4-30T6:34:16Z</time></trkpt>
<trkpt lat="49.1653261" lon="2.6537356"><ele>88.10</ele><time>2026-4-30T6:34:19Z</time></trkpt>
<trkpt lat="49.1655065" lon="2.6538013"><ele>87.81</ele><time>2026-4-30T6:34:22Z</time></trkpt>
<trkpt lat="49.1656780" lon="2.6538851"><ele>84.58</ele><time>2026-4-30T6:34:25Z</time></trkpt>
<trkpt lat="49.1658985" lon="2.6539543"><ele>83.59</ele><time>2026-4-30T6:34:28Z</time></trkpt>
<trkpt lat="49.1660951" lon="2.6540343"><ele>82.50</ele><time>2026-4-30T6:34:31Z</time></trkpt>
<trkpt lat="49.1662927" lon="2.6541091"><ele>82.37</ele><time>2026-4-30T6:34:34Z</time></trkpt>
<trkpt lat="49.1664781" lon="2.6541992"><ele>81.81</ele><time>2026-4-30T6:34:37Z</time></trkpt>
<trkpt lat="49.1666450" lon="2.6543342"><ele>79.12</ele><time>2026-4-30T6:34:40Z</time></trkpt>
<trkpt lat="49.1668281" lon="2.6545353"><ele>77.03</ele><time>2026-4-30T6:34:43Z</time></trkpt>
<trkpt lat="49.1669972" lon="2.6546818"><ele>77.57</ele><time>2026-4-30T6:34:46Z</time></trkpt>
<trkpt lat="49.1671608" lon="2.6548663"><ele>76.91</ele><time>2026-4-30T6:34:49Z</time></trkpt>
<trkpt lat="49.1673259" lon="2.6550662"><ele>75.84</ele><time>2026-4-30T6:34:52Z</time></trkpt>
<trkpt lat="49.1674814" lon="2.6552505"><ele>74.96</ele><time>2026-4-30T6:34:55Z</time></trkpt>
<trkpt lat="49.1676216" lon="2.6554389"><ele>74.19</ele><time>2026-4-30T6:34:58Z</time></trkpt>
<trkpt lat="49.1677815" lon="2.6556177"><ele>74.13</ele><time>2026-4-30T6:35:1Z</time></trkpt>
<trkpt lat="49.1679490" lon="2.6557682"><ele>73.38</ele><time>2026-4-30T6:35:4Z</time></trkpt>
<trkpt lat="49.1681169" lon="2.6558988"><ele>75.66</ele><time>2026-4-30T6:35:7Z</time></trkpt>
<trkpt lat="49.1682899" lon="2.6560682"><ele>76.96</ele><time>2026-4-30T6:35:10Z</time></trkpt>
<trkpt lat="49.1684763" lon="2.6562029"><ele>77.37</ele><time>2026-4-30T6:35:13Z</time></trkpt>
<trkpt lat="49.1686550" lon="2.6563010"><ele>76.71</ele><time>2026-4-30T6:35:16Z</time></trkpt>
<trkpt lat="49.1688158" lon="2.6564351"><ele>76.57</ele><time>2026-4-30T6:35:19Z</time></trkpt>
<trkpt lat="49.1689658" lon="2.6565935"><ele>77.43</ele><time>2026-4-30T6:35:22Z</time></trkpt>
<trkpt lat="49.1687925" lon="2.6564954"><ele>75.66</ele><time>2026-4-30T6:35:25Z</time></trkpt>
<trkpt lat="49.1686205" lon="2.6563586"><ele>77.01</ele><time>2026-4-30T6:35:28Z</time></trkpt>
<trkpt lat="49.1684358" lon="2.6563210"><ele>76.47</ele><time>2026-4-30T6:35:31Z</time></trkpt>
<trkpt lat="49.1682270" lon="2.6563708"><ele>74.55</ele><time>2026-4-30T6:35:34Z</time></trkpt>
<trkpt lat="49.1680389" lon="2.6563930"><ele>75.86</ele><time>2026-4-30T6:35:37Z</time></trkpt>
<trkpt lat="49.1678755" lon="2.6562753"><ele>81.44</ele><time>2026-4-30T6:35:40Z</time></trkpt>
<trkpt lat="49.1678649" lon="2.6559757"><ele>79.33</ele><time>2026-4-30T6:35:43Z</time></trkpt>
<trkpt lat="49.1678122" lon="2.6556988"><ele>81.44</ele><time>2026-4-30T6:35:46Z</time></trkpt>
<trkpt lat="49.1676612" lon="2.6555152"><ele>81.78</ele><time>2026-4-30T6:35:49Z</time></trkpt>
<trkpt lat="49.1675087" lon="2.6553358"><ele>80.50</ele><time>2026-4-30T6:35:52Z</time></trkpt>
<trkpt lat="49.1673522" lon="2.6551440"><ele>80.28</ele><time>2026-4-30T6:35:55Z</time></trkpt>
<trkpt lat="49.1671864" lon="2.6549419"><ele>78.20</ele><time>2026-4-30T6:35:58Z</time></trkpt>
<trkpt lat="49.1670131" lon="2.6547539"><ele>79.66</ele><time>2026-4-30T6:36:1Z</time></trkpt>
<trkpt lat="49.1668646" lon="2.6545882"><ele>80.87</ele><time>2026-4-30T6:36:4Z</time></trkpt>
<trkpt lat="49.1667012" lon="2.6544028"><ele>81.62</ele><time>2026-4-30T6:36:7Z</time></trkpt>
<trkpt lat="49.1665115" lon="2.6542445"><ele>79.64</ele><time>2026-4-30T6:36:10Z</time></trkpt>
<trkpt lat="49.1663103" lon="2.6541488"><ele>79.70</ele><time>2026-4-30T6:36:13Z</time></trkpt>
<trkpt lat="49.1661225" lon="2.6540647"><ele>81.28</ele><time>2026-4-30T6:36:16Z</time></trkpt>
<trkpt lat="49.1659418" lon="2.6539901"><ele>80.39</ele><time>2026-4-30T6:36:19Z</time></trkpt>
<trkpt lat="49.1657459" lon="2.6539097"><ele>84.13</ele><time>2026-4-30T6:36:22Z</time></trkpt>
<trkpt lat="49.1655531" lon="2.6538380"><ele>84.61</ele><time>2026-4-30T6:36:25Z</time></trkpt>
<trkpt lat="49.1653728" lon="2.6537608"><ele>86.13</ele><time>2026-4-30T6:36:28Z</time></trkpt>
<trkpt lat="49.1651996" lon="2.6536758"><ele>88.11</ele><time>2026-4-30T6:36:31Z</time></trkpt>
<trkpt lat="49.1650236" lon="2.6536134"><ele>87.85</ele><time>2026-4-30T6:36:34Z</time></trkpt>
<trkpt lat="49.1648415" lon="2.6535287"><ele>88.53</ele><time>2026-4-30T6:36:37Z</time></trkpt>
<trkpt lat="49.1646498" lon="2.6534519"><ele>88.65</ele><time>2026-4-30T6:36:40Z</time></trkpt>
<trkpt lat="49.1644669" lon="2.6533991"><ele>88.39</ele><time>2026-4-30T6:36:43Z</time></trkpt>
<trkpt lat="49.1643024" lon="2.6532838"><ele>90.91</ele><time>2026-4-30T6:36:46Z</time></trkpt>
<trkpt lat="49.1641431" lon="2.6531321"><ele>95.63</ele><time>2026-4-30T6:36:49Z</time></trkpt>
<trkpt lat="49.1640393" lon="2.6528867"><ele>100.02</ele><time>2026-4-30T6:36:52Z</time></trkpt>
<trkpt lat="49.1639366" lon="2.6526605"><ele>102.36</ele><time>2026-4-30T6:36:55Z</time></trkpt>
<trkpt lat="49.1638175" lon="2.6524281"><ele>106.13</ele><time>2026-4-30T6:36:58Z</time></trkpt>
<trkpt lat="49.1636899" lon="2.6521891"><ele>105.43</ele><time>2026-4-30T6:37:1Z</time></trkpt>
<trkpt lat="49.1635434" lon="2.6520021"><ele>104.77</ele><time>2026-4-30T6:37:4Z</time></trkpt>
<trkpt lat="49.1633688" lon="2.6518919"><ele>108.85</ele><time>2026-4-30T6:37:7Z</time></trkpt>
<trkpt lat="49.1632151" lon="2.6517451"><ele>109.62</ele><time>2026-4-30T6:37:10Z</time></trkpt>
<trkpt lat="49.1630325" lon="2.6515947"><ele>108.26</ele><time>2026-4-30T6:37:13Z</time></trkpt>
<trkpt lat="49.1628478" lon="2.6514534"><ele>109.06</ele><time>2026-4-30T6:37:16Z</time></trkpt>
<trkpt lat="49.1626840" lon="2.6513214"><ele>109.00</ele><time>2026-4-30T6:37:19Z</time></trkpt>
<trkpt lat="49.1625007" lon="2.6511925"><ele>108.25</ele><time>2026-4-30T6:37:22Z</time></trkpt>
<trkpt lat="49.1623312" lon="2.6510348"><ele>107.79</ele><time>2026-4-30T6:37:25Z</time></trkpt>
<trkpt lat="49.1621592" lon="2.6509059"><ele>107.80</ele><time>2026-4-30T6:37:28Z</time></trkpt>
<trkpt lat="49.1619964" lon="2.6507691"><ele>106.97</ele><time>2026-4-30T6:37:31Z</time></trkpt>
<trkpt lat="49.1618181" lon="2.6506069"><ele>106.21</ele><time>2026-4-30T6:37:34Z</time></trkpt>
<trkpt lat="49.1616564" lon="2.6504436"><ele>105.71</ele><time>2026-4-30T6:37:37Z</time></trkpt>
<trkpt lat="49.1614406" lon="2.6502066"><ele>106.25</ele><time>2026-4-30T6:37:40Z</time></trkpt>
<trkpt lat="49.1612792" lon="2.6500768"><ele>109.36</ele><time>2026-4-30T6:37:43Z</time></trkpt>
<trkpt lat="49.1610715" lon="2.6498649"><ele>107.76</ele><time>2026-4-30T6:37:46Z</time></trkpt>
<trkpt lat="49.1608841" lon="2.6497500"><ele>104.05</ele><time>2026-4-30T6:37:49Z</time></trkpt>
<trkpt lat="49.1606764" lon="2.6497053"><ele>104.54</ele><time>2026-4-30T6:37:52Z</time></trkpt>
<trkpt lat="49.1604886" lon="2.6496410"><ele>106.32</ele><time>2026-4-30T6:37:55Z</time></trkpt>
<trkpt lat="49.1603055" lon="2.6495503"><ele>110.82</ele><time>2026-4-30T6:37:58Z</time></trkpt>
<trkpt lat="49.1601679" lon="2.6493577"><ele>109.16</ele><time>2026-4-30T6:38:1Z</time></trkpt>
<trkpt lat="49.1601080" lon="2.6490689"><ele>108.53</ele><time>2026-4-30T6:38:4Z</time></trkpt>
<trkpt lat="49.1601088" lon="2.6487111"><ele>105.97</ele><time>2026-4-30T6:38:7Z</time></trkpt>
<trkpt lat="49.1600522" lon="2.6484198"><ele>107.80</ele><time>2026-4-30T6:38:10Z</time></trkpt>
<trkpt lat="49.1600048" lon="2.6480683"><ele>105.78</ele><time>2026-4-30T6:38:13Z</time></trkpt>
<trkpt lat="49.1598870" lon="2.6477830"><ele>105.50</ele><time>2026-4-30T6:38:16Z</time></trkpt>
<trkpt lat="49.1597085" lon="2.6478181"><ele>101.49</ele><time>2026-4-30T6:38:19Z</time></trkpt>
<trkpt lat="49.1595510" lon="2.6480157"><ele>102.25</ele><time>2026-4-30T6:38:22Z</time></trkpt>
<trkpt lat="49.1594017" lon="2.6481754"><ele>100.48</ele><time>2026-4-30T6:38:25Z</time></trkpt>
<trkpt lat="49.1592559" lon="2.6483370"><ele>101.52</ele><time>2026-4-30T6:38:28Z</time></trkpt>
<trkpt lat="49.1591040" lon="2.6485112"><ele>100.96</ele><time>2026-4-30T6:38:31Z</time></trkpt>
<trkpt lat="49.1589593" lon="2.6486838"><ele>101.15</ele><time>2026-4-30T6:38:34Z</time></trkpt>
<trkpt lat="49.1587825" lon="2.6489216"><ele>98.96</ele><time>2026-4-30T6:38:37Z</time></trkpt>
<trkpt lat="49.1585940" lon="2.6491525"><ele>96.00</ele><time>2026-4-30T6:38:40Z</time></trkpt>
<trkpt lat="49.1584050" lon="2.6494060"><ele>93.41</ele><time>2026-4-30T6:38:43Z</time></trkpt>
<trkpt lat="49.1582082" lon="2.6496688"><ele>92.75</ele><time>2026-4-30T6:38:46Z</time></trkpt>
<trkpt lat="49.1580103" lon="2.6499062"><ele>91.25</ele><time>2026-4-30T6:38:49Z</time></trkpt>
<trkpt lat="49.1578359" lon="2.6501122"><ele>91.16</ele><time>2026-4-30T6:38:52Z</time></trkpt>
<trkpt lat="49.1576767" lon="2.6503097"><ele>91.04</ele><time>2026-4-30T6:38:55Z</time></trkpt>
<trkpt lat="49.1575110" lon="2.6505041"><ele>91.23</ele><time>2026-4-30T6:38:58Z</time></trkpt>
<trkpt lat="49.1573629" lon="2.6506713"><ele>90.40</ele><time>2026-4-30T6:39:1Z</time></trkpt>
<trkpt lat="49.1571830" lon="2.6508879"><ele>89.88</ele><time>2026-4-30T6:39:4Z</time></trkpt>
<trkpt lat="49.1569922" lon="2.6511083"><ele>91.66</ele><time>2026-4-30T6:39:7Z</time></trkpt>
<trkpt lat="49.1568607" lon="2.6513230"><ele>89.80</ele><time>2026-4-30T6:39:10Z</time></trkpt>
<trkpt lat="49.1567230" lon="2.6515183"><ele>88.68</ele><time>2026-4-30T6:39:13Z</time></trkpt>
<trkpt lat="49.1565671" lon="2.6516682"><ele>86.00</ele><time>2026-4-30T6:39:16Z</time></trkpt>
<trkpt lat="49.1563973" lon="2.6518763"><ele>85.99</ele><time>2026-4-30T6:39:19Z</time></trkpt>
<trkpt lat="49.1562046" lon="2.6520831"><ele>85.41</ele><time>2026-4-30T6:39:22Z</time></trkpt>
<trkpt lat="49.1560345" lon="2.6522843"><ele>86.26</ele><time>2026-4-30T6:39:25Z</time></trkpt>
<trkpt lat="49.1558843" lon="2.6524649"><ele>88.42</ele><time>2026-4-30T6:39:28Z</time></trkpt>
<trkpt lat="49.1557194" lon="2.6526744"><ele>88.81</ele><time>2026-4-30T6:39:31Z</time></trkpt>
<trkpt lat="49.1555898" lon="2.6529396"><ele>90.34</ele><time>2026-4-30T6:39:34Z</time></trkpt>
<trkpt lat="49.1554521" lon="2.6531299"><ele>92.36</ele><time>2026-4-30T6:39:37Z</time></trkpt>
<trkpt lat="49.1552520" lon="2.6533454"><ele>86.63</ele><time>2026-4-30T6:39:40Z</time></trkpt>
<trkpt lat="49.1550797" lon="2.6535407"><ele>82.51</ele><time>2026-4-30T6:39:43Z</time></trkpt>
<trkpt lat="49.1548908" lon="2.6537491"><ele>79.80</ele><time>2026-4-30T6:39:46Z</time></trkpt>
<trkpt lat="49.1547504" lon="2.6539410"><ele>76.52</ele><time>2026-4-30T6:39:49Z</time></trkpt>
<trkpt lat="49.1546717" lon="2.6541897"><ele>75.00</ele><time>2026-4-30T6:39:52Z</time></trkpt>
<trkpt lat="49.1545230" lon="2.6544591"><ele>75.34</ele><time>2026-4-30T6:39:55Z</time></trkpt>
<trkpt lat="49.1543987" lon="2.6547149"><ele>76.50</ele><time>2026-4-30T6:39:58Z</time></trkpt>
<trkpt lat="49.1542627" lon="2.6549892"><ele>76.49</ele><time>2026-4-30T6:40:1Z</time></trkpt>
<trkpt lat="49.1541392" lon="2.6552527"><ele>76.31</ele><time>2026-4-30T6:40:4Z</time></trkpt>
<trkpt lat="49.1540317" lon="2.6555101"><ele>79.50</ele><time>2026-4-30T6:40:7Z</time></trkpt>
<trkpt lat="49.1539115" lon="2.6557149"><ele>80.31</ele><time>2026-4-30T6:40:10Z</time></trkpt>
<trkpt lat="49.1537935" lon="2.6559402"><ele>80.18</ele><time>2026-4-30T6:40:13Z</time></trkpt>
<trkpt lat="49.1536605" lon="2.6561368"><ele>79.32</ele><time>2026-4-30T6:40:16Z</time></trkpt>
<trkpt lat="49.1535498" lon="2.6563743"><ele>78.75</ele><time>2026-4-30T6:40:19Z</time></trkpt>
<trkpt lat="49.1534212" lon="2.6566796"><ele>82.14</ele><time>2026-4-30T6:40:22Z</time></trkpt>
<trkpt lat="49.1532910" lon="2.6568825"><ele>82.18</ele><time>2026-4-30T6:40:25Z</time></trkpt>
<trkpt lat="49.1531842" lon="2.6571098"><ele>81.43</ele><time>2026-4-30T6:40:28Z</time></trkpt>
<trkpt lat="49.1530322" lon="2.6573973"><ele>79.52</ele><time>2026-4-30T6:40:31Z</time></trkpt>
<trkpt lat="49.1529111" lon="2.6576705"><ele>75.75</ele><time>2026-4-30T6:40:34Z</time></trkpt>
<trkpt lat="49.1527845" lon="2.6579235"><ele>74.75</ele><time>2026-4-30T6:40:37Z</time></trkpt>
<trkpt lat="49.1526348" lon="2.6581974"><ele>76.31</ele><time>2026-4-30T6:40:40Z</time></trkpt>
<trkpt lat="49.1524848" lon="2.6584524"><ele>76.67</ele><time>2026-4-30T6:40:43Z</time></trkpt>
<trkpt lat="49.1523323" lon="2.6586977"><ele>76.42</ele><time>2026-4-30T6:40:46Z</time></trkpt>
<trkpt lat="49.1522040" lon="2.6588922"><ele>74.77</ele><time>2026-4-30T6:40:49Z</time></trkpt>
<trkpt lat="49.1520719" lon="2.6590805"><ele>74.62</ele><time>2026-4-30T6:40:52Z</time></trkpt>
<trkpt lat="49.1519118" lon="2.6592464"><ele>72.99</ele><time>2026-4-30T6:40:55Z</time></trkpt>
<trkpt lat="49.1517579" lon="2.6594156"><ele>74.95</ele><time>2026-4-30T6:40:58Z</time></trkpt>
<trkpt lat="49.1515907" lon="2.6595267"><ele>78.82</ele><time>2026-4-30T6:41:1Z</time></trkpt>
<trkpt lat="49.1513956" lon="2.6596378"><ele>77.83</ele><time>2026-4-30T6:41:4Z</time></trkpt>
<trkpt lat="49.1512242" lon="2.6597798"><ele>78.87</ele><time>2026-4-30T6:41:7Z</time></trkpt>
<trkpt lat="49.1510319" lon="2.6599141"><ele>77.13</ele><time>2026-4-30T6:41:10Z</time></trkpt>
<trkpt lat="49.1508656" lon="2.6600782"><ele>75.38</ele><time>2026-4-30T6:41:13Z</time></trkpt>
<trkpt lat="49.1506745" lon="2.6602190"><ele>75.76</ele><time>2026-4-30T6:41:16Z</time></trkpt>
<trkpt lat="49.1505058" lon="2.6603285"><ele>75.96</ele><time>2026-4-30T6:41:19Z</time></trkpt>
<trkpt lat="49.1503240" lon="2.6604733"><ele>75.22</ele><time>2026-4-30T6:41:22Z</time></trkpt>
<trkpt lat="49.1501653" lon="2.6606185"><ele>74.96</ele><time>2026-4-30T6:41:25Z</time></trkpt>
<trkpt lat="49.1499730" lon="2.6607601"><ele>75.92</ele><time>2026-4-30T6:41:28Z</time></trkpt>
<trkpt lat="49.1498063" lon="2.6609044"><ele>75.42</ele><time>2026-4-30T6:41:31Z</time></trkpt>
<trkpt lat="49.1496318" lon="2.6610438"><ele>76.37</ele><time>2026-4-30T6:41:34Z</time></trkpt>
<trkpt lat="49.1494364" lon="2.6611917"><ele>76.20</ele><time>2026-4-30T6:41:37Z</time></trkpt>
<trkpt lat="49.1492367" lon="2.6613540"><ele>78.24</ele><time>2026-4-30T6:41:40Z</time></trkpt>
<trkpt lat="49.1490374" lon="2.6614971"><ele>78.31</ele><time>2026-4-30T6:41:43Z</time></trkpt>
<trkpt lat="49.1488524" lon="2.6616512"><ele>75.54</ele><time>2026-4-30T6:41:46Z</time></trkpt>
<trkpt lat="49.1486963" lon="2.6618005"><ele>76.47</ele><time>2026-4-30T6:41:49Z</time></trkpt>
<trkpt lat="49.1485549" lon="2.6619934"><ele>76.77</ele><time>2026-4-30T6:41:52Z</time></trkpt>
<trkpt lat="49.1483582" lon="2.6619980"><ele>77.16</ele><time>2026-4-30T6:41:55Z</time></trkpt>
<trkpt lat="49.1482000" lon="2.6621519"><ele>78.49</ele><time>2026-4-30T6:41:58Z</time></trkpt>
<trkpt lat="49.1480300" lon="2.6622763"><ele>78.40</ele><time>2026-4-30T6:42:1Z</time></trkpt>
<trkpt lat="49.1478480" lon="2.6623941"><ele>79.62</ele><time>2026-4-30T6:42:4Z</time></trkpt>
<trkpt lat="49.1476776" lon="2.6624989"><ele>81.10</ele><time>2026-4-30T6:42:7Z</time></trkpt>
<trkpt lat="49.1475178" lon="2.6626387"><ele>84.70</ele><time>2026-4-30T6:42:10Z</time></trkpt>
<trkpt lat="49.1473444" lon="2.6627710"><ele>87.67</ele><time>2026-4-30T6:42:13Z</time></trkpt>
<trkpt lat="49.1471618" lon="2.6628819"><ele>87.41</ele><time>2026-4-30T6:42:16Z</time></trkpt>
<trkpt lat="49.1469878" lon="2.6630097"><ele>87.48</ele><time>2026-4-30T6:42:19Z</time></trkpt>
<trkpt lat="49.1467856" lon="2.6631471"><ele>85.90</ele><time>2026-4-30T6:42:22Z</time></trkpt>
<trkpt lat="49.1466112" lon="2.6633369"><ele>88.36</ele><time>2026-4-30T6:42:25Z</time></trkpt>
<trkpt lat="49.1464401" lon="2.6634800"><ele>89.83</ele><time>2026-4-30T6:42:28Z</time></trkpt>
<trkpt lat="49.1462600" lon="2.6636270"><ele>93.03</ele><time>2026-4-30T6:42:31Z</time></trkpt>
<trkpt lat="49.1460830" lon="2.6636842"><ele>93.96</ele><time>2026-4-30T6:42:34Z</time></trkpt>
<trkpt lat="49.1459027" lon="2.6637275"><ele>94.06</ele><time>2026-4-30T6:42:37Z</time></trkpt>
<trkpt lat="49.1456992" lon="2.6637743"><ele>95.49</ele><time>2026-4-30T6:42:40Z</time></trkpt>
<trkpt lat="49.1454912" lon="2.6638054"><ele>94.35</ele><time>2026-4-30T6:42:43Z</time></trkpt>
<trkpt lat="49.1453084" lon="2.6638279"><ele>93.90</ele><time>2026-4-30T6:42:46Z</time></trkpt>
<trkpt lat="49.1451019" lon="2.6638820"><ele>93.64</ele><time>2026-4-30T6:42:49Z</time></trkpt>
<trkpt lat="49.1448992" lon="2.6639992"><ele>101.41</ele><time>2026-4-30T6:42:52Z</time></trkpt>
<trkpt lat="49.1446918" lon="2.6640556"><ele>102.21</ele><time>2026-4-30T6:42:55Z</time></trkpt>
<trkpt lat="49.1445084" lon="2.6641456"><ele>101.09</ele><time>2026-4-30T6:42:58Z</time></trkpt>
<trkpt lat="49.1443313" lon="2.6642426"><ele>105.59</ele><time>2026-4-30T6:43:1Z</time></trkpt>
<trkpt lat="49.1441755" lon="2.6644078"><ele>104.90</ele><time>2026-4-30T6:43:4Z</time></trkpt>
<trkpt lat="49.1440092" lon="2.6645861"><ele>106.63</ele><time>2026-4-30T6:43:7Z</time></trkpt>
<trkpt lat="49.1438555" lon="2.6647537"><ele>103.95</ele><time>2026-4-30T6:43:10Z</time></trkpt>
<trkpt lat="49.1436682" lon="2.6648848"><ele>106.77</ele><time>2026-4-30T6:43:13Z</time></trkpt>
<trkpt lat="49.1435253" lon="2.6650820"><ele>109.67</ele><time>2026-4-30T6:43:16Z</time></trkpt>
<trkpt lat="49.1433518" lon="2.6652256"><ele>110.68</ele><time>2026-4-30T6:43:19Z</time></trkpt>
<trkpt lat="49.1431927" lon="2.6654109"><ele>110.12</ele><time>2026-4-30T6:43:22Z</time></trkpt>
<trkpt lat="49.1430623" lon="2.6656155"><ele>110.50</ele><time>2026-4-30T6:43:25Z</time></trkpt>
<trkpt lat="49.1429314" lon="2.6658283"><ele>113.28</ele><time>2026-4-30T6:43:28Z</time></trkpt>
<trkpt lat="49.1427856" lon="2.6660215"><ele>108.46</ele><time>2026-4-30T6:43:31Z</time></trkpt>
<trkpt lat="49.1426319" lon="2.6661991"><ele>105.52</ele><time>2026-4-30T6:43:34Z</time></trkpt>
<trkpt lat="49.1424690" lon="2.6663659"><ele>107.21</ele><time>2026-4-30T6:43:37Z</time></trkpt>
<trkpt lat="49.1423210" lon="2.6665944"><ele>107.72</ele><time>2026-4-30T6:43:40Z</time></trkpt>
<trkpt lat="49.1421871" lon="2.6668461"><ele>109.76</ele><time>2026-4-30T6:43:43Z</time></trkpt>
<trkpt lat="49.1420473" lon="2.6670670"><ele>113.25</ele><time>2026-4-30T6:43:46Z</time></trkpt>
<trkpt lat="49.1419104" lon="2.6673201"><ele>114.45</ele><time>2026-4-30T6:43:49Z</time></trkpt>
<trkpt lat="49.1417500" lon="2.6675109"><ele>115.94</ele><time>2026-4-30T6:43:52Z</time></trkpt>
<trkpt lat="49.1415842" lon="2.6676967"><ele>118.74</ele><time>2026-4-30T6:43:55Z</time></trkpt>
<trkpt lat="49.1414656" lon="2.6679508"><ele>120.28</ele><time>2026-4-30T6:43:58Z</time></trkpt>
<trkpt lat="49.1413664" lon="2.6682619"><ele>122.83</ele><time>2026-4-30T6:44:1Z</time></trkpt>
<trkpt lat="49.1412719" lon="2.6685092"><ele>120.24</ele><time>2026-4-30T6:44:4Z</time></trkpt>
<trkpt lat="49.1411527" lon="2.6688097"><ele>119.09</ele><time>2026-4-30T6:44:7Z</time></trkpt>
<trkpt lat="49.1410457" lon="2.6690540"><ele>120.72</ele><time>2026-4-30T6:44:10Z</time></trkpt>
<trkpt lat="49.1408647" lon="2.6692501"><ele>121.30</ele><time>2026-4-30T6:44:13Z</time></trkpt>
<trkpt lat="49.1407067" lon="2.6694211"><ele>120.16</ele><time>2026-4-30T6:44:16Z</time></trkpt>
<trkpt lat="49.1405632" lon="2.6695939"><ele>119.40</ele><time>2026-4-30T6:44:19Z</time></trkpt>
<trkpt lat="49.1404058" lon="2.6697547"><ele>120.69</ele><time>2026-4-30T6:44:22Z</time></trkpt>
<trkpt lat="49.1402553" lon="2.6699189"><ele>121.45</ele><time>2026-4-30T6:44:25Z</time></trkpt>
<trkpt lat="49.1400591" lon="2.6700833"><ele>120.90</ele><time>2026-4-30T6:44:28Z</time></trkpt>
<trkpt lat="49.1398815" lon="2.6701978"><ele>121.23</ele><time>2026-4-30T6:44:31Z</time></trkpt>
<trkpt lat="49.1397086" lon="2.6703434"><ele>120.78</ele><time>2026-4-30T6:44:34Z</time></trkpt>
<trkpt lat="49.1395343" lon="2.6704365"><ele>120.43</ele><time>2026-4-30T6:44:37Z</time></trkpt>
<trkpt lat="49.1393323" lon="2.6705923"><ele>122.12</ele><time>2026-4-30T6:44:40Z</time></trkpt>
<trkpt lat="49.1391549" lon="2.6706672"><ele>122.75</ele><time>2026-4-30T6:44:43Z</time></trkpt>
<trkpt lat="49.1389869" lon="2.6707685"><ele>122.05</ele><time>2026-4-30T6:44:46Z</time></trkpt>
<trkpt lat="49.1388090" lon="2.6709115"><ele>122.47</ele><time>2026-4-30T6:44:49Z</time></trkpt>
<trkpt lat="49.1386265" lon="2.6710324"><ele>122.42</ele><time>2026-4-30T6:44:52Z</time></trkpt>
<trkpt lat="49.1384353" lon="2.6711663"><ele>122.94</ele><time>2026-4-30T6:44:55Z</time></trkpt>
<trkpt lat="49.1382319" lon="2.6713127"><ele>126.16</ele><time>2026-4-30T6:44:58Z</time></trkpt>
<trkpt lat="49.1380571" lon="2.6714246"><ele>125.28</ele><time>2026-4-30T6:45:1Z</time></trkpt>
<trkpt lat="49.1378705" lon="2.6715522"><ele>124.50</ele><time>2026-4-30T6:45:4Z</time></trkpt>
<trkpt lat="49.1376896" lon="2.6716785"><ele>125.21</ele><time>2026-4-30T6:45:7Z</time></trkpt>
<trkpt lat="49.1375208" lon="2.6718213"><ele>124.03</ele><time>2026-4-30T6:45:10Z</time></trkpt>
<trkpt lat="49.1373374" lon="2.6719821"><ele>126.55</ele><time>2026-4-30T6:45:13Z</time></trkpt>
<trkpt lat="49.1371518" lon="2.6721974"><ele>127.04</ele><time>2026-4-30T6:45:16Z</time></trkpt>
<trkpt lat="49.1369984" lon="2.6723715"><ele>126.84</ele><time>2026-4-30T6:45:19Z</time></trkpt>
<trkpt lat="49.1368056" lon="2.6725974"><ele>125.56</ele><time>2026-4-30T6:45:22Z</time></trkpt>
<trkpt lat="49.1366617" lon="2.6727777"><ele>125.83</ele><time>2026-4-30T6:45:25Z</time></trkpt>
<trkpt lat="49.1364978" lon="2.6729618"><ele>124.66</ele><time>2026-4-30T6:45:28Z</time></trkpt>
<trkpt lat="49.1363313" lon="2.6731535"><ele>121.82</ele><time>2026-4-30T6:45:31Z</time></trkpt>
<trkpt lat="49.1361747" lon="2.6733255"><ele>118.88</ele><time>2026-4-30T6:45:34Z</time></trkpt>
<trkpt lat="49.1360157" lon="2.6734953"><ele>117.36</ele><time>2026-4-30T6:45:37Z</time></trkpt>
<trkpt lat="49.1358776" lon="2.6736895"><ele>115.73</ele><time>2026-4-30T6:45:40Z</time></trkpt>
<trkpt lat="49.1357069" lon="2.6739328"><ele>117.49</ele><time>2026-4-30T6:45:43Z</time></trkpt>
<trkpt lat="49.1355417" lon="2.6741452"><ele>115.55</ele><time>2026-4-30T6:45:46Z</time></trkpt>
<trkpt lat="49.1354032" lon="2.6743493"><ele>112.89</ele><time>2026-4-30T6:45:49Z</time></trkpt>
<trkpt lat="49.1352704" lon="2.6745431"><ele>115.43</ele><time>2026-4-30T6:45:52Z</time></trkpt>
<trkpt lat="49.1351089" lon="2.6747374"><ele>117.80</ele><time>2026-4-30T6:45:55Z</time></trkpt>
<trkpt lat="49.1349662" lon="2.6749275"><ele>116.35</ele><time>2026-4-30T6:45:58Z</time></trkpt>
<trkpt lat="49.1348103" lon="2.6750776"><ele>114.85</ele><time>2026-4-30T6:46:1Z</time></trkpt>
<trkpt lat="49.1346505" lon="2.6752353"><ele>115.21</ele><time>2026-4-30T6:46:4Z</time></trkpt>
<trkpt lat="49.1344687" lon="2.6754013"><ele>116.64</ele><time>2026-4-30T6:46:7Z</time></trkpt>
<trkpt lat="49.1342819" lon="2.6755619"><ele>116.14</ele><time>2026-4-30T6:46:10Z</time></trkpt>
<trkpt lat="49.1340753" lon="2.6757227"><ele>117.30</ele><time>2026-4-30T6:46:13Z</time></trkpt>
<trkpt lat="49.1338923" lon="2.6758558"><ele>117.43</ele><time>2026-4-30T6:46:16Z</time></trkpt>
<trkpt lat="49.1337162" lon="2.6760067"><ele>116.47</ele><time>2026-4-30T6:46:19Z</time></trkpt>
<trkpt lat="49.1335243" lon="2.6761617"><ele>114.42</ele><time>2026-4-30T6:46:22Z</time></trkpt>
<trkpt lat="49.1333093" lon="2.6762230"><ele>113.05</ele><time>2026-4-30T6:46:25Z</time></trkpt>
<trkpt lat="49.1331326" lon="2.6763497"><ele>113.95</ele><time>2026-4-30T6:46:28Z</time></trkpt>
<trkpt lat="49.1329361" lon="2.6764621"><ele>112.66</ele><time>2026-4-30T6:46:31Z</time></trkpt>
<trkpt lat="49.1327094" lon="2.6765245"><ele>110.88</ele><time>2026-4-30T6:46:34Z</time></trkpt>
<trkpt lat="49.1325059" lon="2.6766129"><ele>109.38</ele><time>2026-4-30T6:46:37Z</time></trkpt>
<trkpt lat="49.1322868" lon="2.6767056"><ele>108.72</ele><time>2026-4-30T6:46:40Z</time></trkpt>
<trkpt lat="49.1320717" lon="2.6767688"><ele>107.80</ele><time>2026-4-30T6:46:43Z</time></trkpt>
<trkpt lat="49.1318658" lon="2.6768191"><ele>105.54</ele><time>2026-4-30T6:46:46Z</time></trkpt>
<trkpt lat="49.1316824" lon="2.6770010"><ele>104.18</ele><time>2026-4-30T6:46:49Z</time></trkpt>
<trkpt lat="49.1315089" lon="2.6772174"><ele>105.76</ele><time>2026-4-30T6:46:52Z</time></trkpt>
<trkpt lat="49.1313655" lon="2.6774492"><ele>103.04</ele><time>2026-4-30T6:46:55Z</time></trkpt>
<trkpt lat="49.1312399" lon="2.6776949"><ele>99.89</ele><time>2026-4-30T6:46:58Z</time></trkpt>
<trkpt lat="49.1310953" lon="2.6779363"><ele>99.22</ele><time>2026-4-30T6:47:1Z</time></trkpt>
<trkpt lat="49.1309666" lon="2.6781884"><ele>97.92</ele><time>2026-4-30T6:47:4Z</time></trkpt>
<trkpt lat="49.1308082" lon="2.6784043"><ele>92.93</ele><time>2026-4-30T6:47:7Z</time></trkpt>
<trkpt lat="49.1306776" lon="2.6785964"><ele>91.53</ele><time>2026-4-30T6:47:10Z</time></trkpt>
<trkpt lat="49.1305643" lon="2.6788328"><ele>93.12</ele><time>2026-4-30T6:47:13Z</time></trkpt>
<trkpt lat="49.1304423" lon="2.6790735"><ele>94.21</ele><time>2026-4-30T6:47:16Z</time></trkpt>
<trkpt lat="49.1303095" lon="2.6793225"><ele>95.65</ele><time>2026-4-30T6:47:19Z</time></trkpt>
<trkpt lat="49.1301921" lon="2.6795692"><ele>94.54</ele><time>2026-4-30T6:47:22Z</time></trkpt>
<trkpt lat="49.1300278" lon="2.6797694"><ele>97.87</ele><time>2026-4-30T6:47:25Z</time></trkpt>
<trkpt lat="49.1298723" lon="2.6799659"><ele>97.68</ele><time>2026-4-30T6:47:28Z</time></trkpt>
<trkpt lat="49.1297288" lon="2.6802225"><ele>97.73</ele><time>2026-4-30T6:47:31Z</time></trkpt>
<trkpt lat="49.1295718" lon="2.6804457"><ele>98.31</ele><time>2026-4-30T6:47:34Z</time></trkpt>
<trkpt lat="49.1293842" lon="2.6805255"><ele>97.93</ele><time>2026-4-30T6:47:37Z</time></trkpt>
<trkpt lat="49.1291993" lon="2.6805861"><ele>95.44</ele><time>2026-4-30T6:47:40Z</time></trkpt>
<trkpt lat="49.1290051" lon="2.6806069"><ele>94.69</ele><time>2026-4-30T6:47:43Z</time></trkpt>
<trkpt lat="49.1287967" lon="2.6806448"><ele>98.44</ele><time>2026-4-30T6:47:46Z</time></trkpt>
<trkpt lat="49.1286117" lon="2.6806700"><ele>98.64</ele><time>2026-4-30T6:47:49Z</time></trkpt>
<trkpt lat="49.1284284" lon="2.6807280"><ele>99.06</ele><time>2026-4-30T6:47:52Z</time></trkpt>
<trkpt lat="49.1283472" lon="2.6809985"><ele>98.75</ele><time>2026-4-30T6:47:55Z</time></trkpt>
<trkpt lat="49.1283066" lon="2.6813090"><ele>100.75</ele><time>2026-4-30T6:47:58Z</time></trkpt>
<trkpt lat="49.1282471" lon="2.6815903"><ele>103.81</ele><time>2026-4-30T6:48:1Z</time></trkpt>
<trkpt lat="49.1281947" lon="2.6819309"><ele>104.38</ele><time>2026-4-30T6:48:4Z</time></trkpt>
<trkpt lat="49.1281511" lon="2.6822012"><ele>103.86</ele><time>2026-4-30T6:48:7Z</time></trkpt>
<trkpt lat="49.1281312" lon="2.6825286"><ele>103.67</ele><time>2026-4-30T6:48:10Z</time></trkpt>
<trkpt lat="49.1281271" lon="2.6828331"><ele>103.62</ele><time>2026-4-30T6:48:13Z</time></trkpt>
<trkpt lat="49.1280996" lon="2.6831125"><ele>101.00</ele><time>2026-4-30T6:48:16Z</time></trkpt>
<trkpt lat="49.1280918" lon="2.6834058"><ele>102.97</ele><time>2026-4-30T6:48:19Z</time></trkpt>
<trkpt lat="49.1280708" lon="2.6837345"><ele>102.06</ele><time>2026-4-30T6:48:22Z</time></trkpt>
<trkpt lat="49.1280214" lon="2.6840330"><ele>105.13</ele><time>2026-4-30T6:48:25Z</time></trkpt>
<trkpt lat="49.1280160" lon="2.6843680"><ele>106.07</ele><time>2026-4-30T6:48:28Z</time></trkpt>
<trkpt lat="49.1280544" lon="2.6846419"><ele>102.49</ele><time>2026-4-30T6:48:31Z</time></trkpt>
<trkpt lat="49.1280858" lon="2.6849928"><ele>99.44</ele><time>2026-4-30T6:48:34Z</time></trkpt>
<trkpt lat="49.1281405" lon="2.6852830"><ele>104.01</ele><time>2026-4-30T6:48:37Z</time></trkpt>
<trkpt lat="49.1282184" lon="2.6855532"><ele>110.09</ele><time>2026-4-30T6:48:40Z</time></trkpt>
<trkpt lat="49.1282648" lon="2.6858325"><ele>108.57</ele><time>2026-4-30T6:48:43Z</time></trkpt>
<trkpt lat="49.1282627" lon="2.6861078"><ele>109.78</ele><time>2026-4-30T6:48:46Z</time></trkpt>
<trkpt lat="49.1282132" lon="2.6864120"><ele>108.75</ele><time>2026-4-30T6:48:49Z</time></trkpt>
<trkpt lat="49.1281287" lon="2.6867007"><ele>106.88</ele><time>2026-4-30T6:48:52Z</time></trkpt>
<trkpt lat="49.1280633" lon="2.6870423"><ele>104.27</ele><time>2026-4-30T6:48:55Z</time></trkpt>
<trkpt lat="49.1280298" lon="2.6873158"><ele>103.96</ele><time>2026-4-30T6:48:58Z</time></trkpt>
<trkpt lat="49.1279607" lon="2.6875812"><ele>103.18</ele><time>2026-4-30T6:49:1Z</time></trkpt>
<trkpt lat="49.1278926" lon="2.6878565"><ele>101.55</ele><time>2026-4-30T6:49:4Z</time></trkpt>
<trkpt lat="49.1277976" lon="2.6881947"><ele>97.69</ele><time>2026-4-30T6:49:7Z</time></trkpt>
<trkpt lat="49.1277133" lon="2.6885511"><ele>93.74</ele><time>2026-4-30T6:49:10Z</time></trkpt>
<trkpt lat="49.1275997" lon="2.6888194"><ele>90.09</ele><time>2026-4-30T6:49:13Z</time></trkpt>
<trkpt lat="49.1275108" lon="2.6890769"><ele>87.51</ele><time>2026-4-30T6:49:16Z</time></trkpt>
<trkpt lat="49.1274564" lon="2.6893397"><ele>86.51</ele><time>2026-4-30T6:49:19Z</time></trkpt>
<trkpt lat="49.1273643" lon="2.6896066"><ele>84.84</ele><time>2026-4-30T6:49:22Z</time></trkpt>
<trkpt lat="49.1273844" lon="2.6899102"><ele>84.96</ele><time>2026-4-30T6:49:25Z</time></trkpt>
<trkpt lat="49.1273466" lon="2.6901986"><ele>84.49</ele><time>2026-4-30T6:49:28Z</time></trkpt>
<trkpt lat="49.1271415" lon="2.6903136"><ele>84.87</ele><time>2026-4-30T6:49:31Z</time></trkpt>
<trkpt lat="49.1269379" lon="2.6904656"><ele>84.85</ele><time>2026-4-30T6:49:34Z</time></trkpt>
<trkpt lat="49.1267663" lon="2.6906399"><ele>85.14</ele><time>2026-4-30T6:49:37Z</time></trkpt>
<trkpt lat="49.1266361" lon="2.6908447"><ele>83.38</ele><time>2026-4-30T6:49:40Z</time></trkpt>
<trkpt lat="49.1265375" lon="2.6911050"><ele>82.64</ele><time>2026-4-30T6:49:43Z</time></trkpt>
<trkpt lat="49.1264199" lon="2.6913323"><ele>81.06</ele><time>2026-4-30T6:49:46Z</time></trkpt>
<trkpt lat="49.1262671" lon="2.6915100"><ele>80.32</ele><time>2026-4-30T6:49:49Z</time></trkpt>
<trkpt lat="49.1261207" lon="2.6917109"><ele>80.05</ele><time>2026-4-30T6:49:52Z</time></trkpt>
<trkpt lat="49.1259715" lon="2.6919222"><ele>79.48</ele><time>2026-4-30T6:49:55Z</time></trkpt>
<trkpt lat="49.1258214" lon="2.6921153"><ele>78.99</ele><time>2026-4-30T6:49:58Z</time></trkpt>
<trkpt lat="49.1256841" lon="2.6923229"><ele>79.30</ele><time>2026-4-30T6:50:1Z</time></trkpt>
<trkpt lat="49.1256157" lon="2.6925797"><ele>79.47</ele><time>2026-4-30T6:50:4Z</time></trkpt>
<trkpt lat="49.1256302" lon="2.6929217"><ele>80.08</ele><time>2026-4-30T6:50:7Z</time></trkpt>
<trkpt lat="49.1256091" lon="2.6932005"><ele>79.48</ele><time>2026-4-30T6:50:10Z</time></trkpt>
<trkpt lat="49.1253910" lon="2.6931893"><ele>79.65</ele><time>2026-4-30T6:50:13Z</time></trkpt>
</trkseg></trk></gpx>